Observation data for Fort McKavett on 06/25/2019      Previous  Date  Next       Current Mesonet Observations  Soil Data  Daily Summary Page  Observations in Plain Language
KMC1 250500Z 15009KT 21/20 A3005 RMK A01 T02060198  RH  095%=      5-min Rain = 0
KMC1 250501Z 15009KT 21/20 A3005 RMK A01 T02060198  RH  095%=      5-min Rain = 0
KMC1 250502Z 16009KT 21/20 A3005 RMK A01 T02060198  RH  095%=      5-min Rain = 0
KMC1 250503Z 15010KT 21/20 A3004 RMK A01 T02050198  RH  096%=      5-min Rain = 0
KMC1 250504Z 15012KT 21/20 A3004 RMK A01 T02050198  RH  096%=      5-min Rain = 0
KMC1 250505Z 15013G18KT 21/20 A3003 RMK A01 T02050198  RH  096%=      5-min Rain = 0
KMC1 250506Z 14014G19KT 21/20 A3002 RMK A01 T02050198  RH  096%=      5-min Rain = 0
KMC1 250507Z 13015G20KT 21/20 A3001 RMK A01 T02050198  RH  096%=      5-min Rain = 0
KMC1 250508Z 13018KT 21/20 A30 RMK A01 T02060199  RH  096%=      5-min Rain = 0
KMC1 250509Z 13019KT 21/20 A2998 RMK A01 T02050199  RH  096%=      5-min Rain = 0
KMC1 250510Z 13021G28KT 21/20 A2997 RMK A01 T02060199  RH  096%=      5-min Rain = 0
KMC1 250511Z 13022G29KT 21/20 A2996 RMK A01 T02070199  RH  095%=      5-min Rain = 0
KMC1 250512Z 12025G34KT 21/20 A2995 RMK A01 T02070198  RH  094%=      5-min Rain = 0
KMC1 250513Z 12025G32KT 21/20 A2994 RMK A01 T02080197  RH  094%=      5-min Rain = 0
KMC1 250514Z 12026KT 21/20 A2993 RMK A01 T02080197  RH  094%=      5-min Rain = 0
KMC1 250515Z 12025G31KT 21/20 A2993 RMK A01 T02080197  RH  094%=      5-min Rain = 0
KMC1 250516Z 12021G27KT 21/20 A2993 RMK A01 T02080198  RH  094%=      5-min Rain = 0
KMC1 250517Z 12020G25KT 21/20 A2993 RMK A01 T02080198  RH  094%=      5-min Rain = 0
KMC1 250518Z 13021KT 21/20 A2992 RMK A01 T02080197  RH  093%=      5-min Rain = 0
KMC1 250519Z 13018G23KT 21/20 A2993 RMK A01 T02090195  RH  092%=      5-min Rain = 0
KMC1 250520Z 13019G26KT 21/19 A2993 RMK A01 T02100193  RH  090%=      5-min Rain = 0
KMC1 250521Z 13015G21KT 21/19 A2993 RMK A01 T02120192  RH  089%=      5-min Rain = 0
KMC1 250522Z 12015G20KT 21/19 A2993 RMK A01 T02120191  RH  088%=      5-min Rain = 0
KMC1 250523Z 13019G24KT 21/19 A2993 RMK A01 T02130192  RH  088%=      5-min Rain = 0
KMC1 250524Z 13022G29KT 21/19 A2993 RMK A01 T02130193  RH  089%=      5-min Rain = 0
KMC1 250525Z 12021G26KT 21/19 A2993 RMK A01 T02120193  RH  088%=      5-min Rain = 0
KMC1 250526Z 12020G26KT 21/19 A2993 RMK A01 T02120192  RH  089%=      5-min Rain = 0
KMC1 250527Z 12016G23KT 21/19 A2994 RMK A01 T02120191  RH  088%=      5-min Rain = 0
KMC1 250528Z 12016G21KT 21/19 A2994 RMK A01 T02120188  RH  086%=      5-min Rain = 0
KMC1 250529Z 11019KT 21/19 A2994 RMK A01 T02130186  RH  085%=      5-min Rain = 0
KMC1 250530Z 12016G22KT 21/18 A2994 RMK A01 T02140184  RH  083%=      5-min Rain = 0
KMC1 250531Z 13023G32KT 22/19 A2994 RMK A01 T02160186  RH  083%=      5-min Rain = 0
KMC1 250532Z 13014G23KT 22/19 A2994 RMK A01 T02160189  RH  085%=      5-min Rain = 0
KMC1 250533Z 13022KT 22/19 A2994 RMK A01 T02160191  RH  085%=      5-min Rain = 0
KMC1 250534Z 13018G25KT 22/19 A2994 RMK A01 T02160190  RH  085%=      5-min Rain = 0
KMC1 250535Z 14020G28KT 22/19 A2994 RMK A01 T02170190  RH  085%=      5-min Rain = 0
KMC1 250536Z 13020G26KT 22/19 A2994 RMK A01 T02180189  RH  084%=      5-min Rain = 0
KMC1 250537Z 14018G24KT 22/19 A2995 RMK A01 T02190191  RH  084%=      5-min Rain = 0
KMC1 250538Z 13018G26KT 22/19 A2995 RMK A01 T02190191  RH  084%=      5-min Rain = 0
KMC1 250539Z 14021G27KT 22/19 A2995 RMK A01 T02190191  RH  084%=      5-min Rain = 0
KMC1 250540Z 13022G29KT 22/19 A2995 RMK A01 T02190193  RH  085%=      5-min Rain = 0
KMC1 250541Z 13018G23KT 22/20 A2995 RMK A01 T02170196  RH  087%=      5-min Rain = 0
KMC1 250542Z 12019G27KT 22/20 A2996 RMK A01 T02160196  RH  089%=      5-min Rain = 0
KMC1 250543Z 12020G26KT 21/20 A2995 RMK A01 T02140196  RH  089%=      5-min Rain = 0
KMC1 250544Z 12020G32KT 21/20 A2995 RMK A01 T02130196  RH  090%=      5-min Rain = 0
KMC1 250545Z 12023G37KT 21/20 A2995 RMK A01 T02130195  RH  090%=      5-min Rain = 0
KMC1 250546Z 13024G32KT 21/19 A2995 RMK A01 T02120194  RH  090%=      5-min Rain = 0
KMC1 250547Z 13022G35KT 21/20 A2995 RMK A01 T02120195  RH  090%=      5-min Rain = 0
KMC1 250548Z 14022G33KT 21/20 A2995 RMK A01 T02100195  RH  091%=      5-min Rain = 0
KMC1 250549Z 14020G27KT 21/20 A2995 RMK A01 T02090195  RH  092%=      5-min Rain = 0
KMC1 250550Z 13018G28KT 21/19 A2995 RMK A01 T02080194  RH  092%=      5-min Rain = 0
KMC1 250551Z 14012KT 21/19 A2995 RMK A01 T02080194  RH  091%=      5-min Rain = 0
KMC1 250552Z 14021G28KT 21/19 A2995 RMK A01 T02080192  RH  090%=      5-min Rain = 0
KMC1 250553Z 14020G29KT 21/19 A2995 RMK A01 T02080188  RH  088%=      5-min Rain = 0
KMC1 250554Z 13025G34KT 21/19 A2994 RMK A01 T02100185  RH  086%=      5-min Rain = 0
KMC1 250555Z 13023G31KT 21/18 A2994 RMK A01 T02110183  RH  084%=      5-min Rain = 0
KMC1 250556Z 13018G24KT 21/18 A2994 RMK A01 T02130182  RH  082%=      5-min Rain = 0
KMC1 250557Z 12021G29KT 21/18 A2993 RMK A01 T02140180  RH  081%=      5-min Rain = 0
KMC1 250558Z 12021G26KT 21/18 A2993 RMK A01 T02140177  RH  079%=      5-min Rain = 0
KMC1 250559Z 13019G24KT 22/18 A2993 RMK A01 T02150176  RH  078%=      5-min Rain = 0
KMC1 250600Z 12016G23KT 22/18 A2993 RMK A01 T02160175  RH  078%=      5-min Rain = 0
KMC1 250601Z 12018G23KT 22/17 A2993 RMK A01 T02160173  RH  077%=      5-min Rain = 0
KMC1 250602Z 12016G21KT 22/17 A2993 RMK A01 T02150171  RH  076%=      5-min Rain = 0
KMC1 250603Z 12021G30KT 22/17 A2992 RMK A01 T02160169  RH  075%=      5-min Rain = 0
KMC1 250604Z 11014G22KT 22/17 A2992 RMK A01 T02160165  RH  073%=      5-min Rain = 0
KMC1 250605Z 11016G22KT 22/17 A2992 RMK A01 T02160166  RH  073%=      5-min Rain = 0
KMC1 250606Z 12018G25KT 22/17 A2992 RMK A01 T02160165  RH  073%=      5-min Rain = 0
KMC1 250607Z 11016G23KT 22/17 A2992 RMK A01 T02160166  RH  073%=      5-min Rain = 0
KMC1 250608Z 12015G24KT 22/17 A2992 RMK A01 T02150166  RH  074%=      5-min Rain = 0
KMC1 250609Z 12017KT 21/17 A2992 RMK A01 T02140167  RH  075%=      5-min Rain = 0
KMC1 250610Z 12012KT 21/17 A2993 RMK A01 T02130168  RH  076%=      5-min Rain = 0
KMC1 250611Z 12014KT 21/17 A2993 RMK A01 T02120169  RH  076%=      5-min Rain = 0
KMC1 250612Z 11015G25KT 21/17 A2992 RMK A01 T02110166  RH  075%=      5-min Rain = 0
KMC1 250613Z 10012G20KT 21/17 A2992 RMK A01 T02120166  RH  075%=      5-min Rain = 0
KMC1 250614Z 11009G14KT 21/17 A2992 RMK A01 T02130168  RH  076%=      5-min Rain = 0
KMC1 250615Z 10010KT 21/17 A2992 RMK A01 T02120169  RH  076%=      5-min Rain = 0
KMC1 250616Z 09010G16KT 21/17 A2992 RMK A01 T02110169  RH  077%=      5-min Rain = 0
KMC1 250617Z 08008G13KT 21/17 A2992 RMK A01 T02100169  RH  077%=      5-min Rain = 0
KMC1 250618Z 10009KT 21/17 A2991 RMK A01 T02090170  RH  078%=      5-min Rain = 0
KMC1 250619Z 09009KT 21/17 A2991 RMK A01 T02080171  RH  079%=      5-min Rain = 0
KMC1 250620Z 11009KT 21/17 A2991 RMK A01 T02080172  RH  080%=      5-min Rain = 0
KMC1 250621Z 13008G13KT 21/17 A2991 RMK A01 T02080172  RH  080%=      5-min Rain = 0
KMC1 250622Z 12014G19KT 21/17 A2991 RMK A01 T02080171  RH  079%=      5-min Rain = 0
KMC1 250623Z 12012G18KT 21/17 A2991 RMK A01 T02100171  RH  078%=      5-min Rain = 0
KMC1 250624Z 13010KT 21/17 A299 RMK A01 T02110172  RH  078%=      5-min Rain = 0
KMC1 250625Z 12007KT 21/17 A299 RMK A01 T02120173  RH  078%=      5-min Rain = 0
KMC1 250626Z 12010G16KT 21/17 A299 RMK A01 T02120173  RH  078%=      5-min Rain = 0
KMC1 250627Z 12012KT 21/17 A299 RMK A01 T02130172  RH  077%=      5-min Rain = 0
KMC1 250628Z 12017G24KT 21/17 A2989 RMK A01 T02140172  RH  077%=      5-min Rain = 0
KMC1 250629Z 12019G24KT 22/17 A2989 RMK A01 T02160172  RH  076%=      5-min Rain = 0
KMC1 250630Z 14016G21KT 22/17 A299 RMK A01 T02180172  RH  075%=      5-min Rain = 0
KMC1 250631Z 14015G21KT 22/17 A299 RMK A01 T02180172  RH  075%=      5-min Rain = 0
KMC1 250632Z 14016G26KT 22/17 A299 RMK A01 T02180171  RH  075%=      5-min Rain = 0
KMC1 250633Z 15013G21KT 22/17 A299 RMK A01 T02190171  RH  074%=      5-min Rain = 0
KMC1 250634Z 14015G22KT 22/17 A2991 RMK A01 T02200171  RH  074%=      5-min Rain = 0
KMC1 250635Z 14012G19KT 22/17 A2991 RMK A01 T02200169  RH  073%=      5-min Rain = 0
KMC1 250636Z 16014G20KT 22/17 A2991 RMK A01 T02210169  RH  072%=      5-min Rain = 0
KMC1 250637Z 17013G18KT 22/17 A2992 RMK A01 T02210168  RH  072%=      5-min Rain = 0
KMC1 250638Z 19009G14KT 22/17 A2992 RMK A01 T02210170  RH  073%=      5-min Rain = 0
KMC1 250639Z 20009G17KT 22/17 A2992 RMK A01 T02200171  RH  073%=      5-min Rain = 0
KMC1 250640Z 21007KT 22/17 A2992 RMK A01 T02190173  RH  075%=      5-min Rain = 0
KMC1 250641Z 18008KT 22/17 A2992 RMK A01 T02180173  RH  075%=      5-min Rain = 0
KMC1 250642Z 17008G14KT 22/17 A2992 RMK A01 T02170173  RH  076%=      5-min Rain = 0
KMC1 250643Z 15007G13KT 22/17 A2991 RMK A01 T02160172  RH  076%=      5-min Rain = 0
KMC1 250644Z 14015G23KT 22/17 A2991 RMK A01 T02160171  RH  075%=      5-min Rain = 0
KMC1 250645Z 14009G16KT 22/17 A2991 RMK A01 T02160171  RH  075%=      5-min Rain = 0
KMC1 250646Z 14012G18KT 22/17 A2991 RMK A01 T02160171  RH  076%=      5-min Rain = 0
KMC1 250647Z 15018G23KT 22/17 A2991 RMK A01 T02160170  RH  075%=      5-min Rain = 0
KMC1 250648Z 15012G17KT 22/17 A2991 RMK A01 T02160170  RH  075%=      5-min Rain = 0
KMC1 250649Z 14013G21KT 22/17 A2991 RMK A01 T02160170  RH  075%=      5-min Rain = 0
KMC1 250650Z 15013G22KT 22/17 A2991 RMK A01 T02160170  RH  075%=      5-min Rain = 0
KMC1 250651Z 15014G23KT 22/17 A2991 RMK A01 T02160169  RH  074%=      5-min Rain = 0
KMC1 250652Z 16013G19KT 22/17 A2991 RMK A01 T02160169  RH  075%=      5-min Rain = 0
KMC1 250653Z 16012KT 22/17 A2991 RMK A01 T02160169  RH  075%=      5-min Rain = 0
KMC1 250654Z 15013KT 22/17 A2992 RMK A01 T02150169  RH  075%=      5-min Rain = 0
KMC1 250655Z 15011G18KT 22/17 A2992 RMK A01 T02150167  RH  074%=      5-min Rain = 0
KMC1 250656Z 15012KT 22/16 A2992 RMK A01 T02150164  RH  073%=      5-min Rain = 0
KMC1 250657Z 16013G19KT 22/16 A2992 RMK A01 T02160163  RH  072%=      5-min Rain = 0
KMC1 250658Z 15010G16KT 22/16 A2992 RMK A01 T02160163  RH  072%=      5-min Rain = 0
KMC1 250659Z 14016G22KT 22/16 A2992 RMK A01 T02160160  RH  071%=      5-min Rain = 0
KMC1 250700Z 15014KT 22/16 A2992 RMK A01 T02170159  RH  069%=      5-min Rain = 0
KMC1 250701Z 16013G20KT 22/16 A2992 RMK A01 T02180157  RH  068%=      5-min Rain = 0
KMC1 250702Z 16013G19KT 22/16 A2992 RMK A01 T02180157  RH  068%=      5-min Rain = 0
KMC1 250703Z 15011G19KT 22/16 A2992 RMK A01 T02180156  RH  068%=      5-min Rain = 0
KMC1 250704Z 15013G18KT 22/16 A2992 RMK A01 T02180155  RH  067%=      5-min Rain = 0
KMC1 250705Z 16014G23KT 22/15 A2992 RMK A01 T02180153  RH  066%=      5-min Rain = 0
KMC1 250706Z 15012G20KT 22/15 A2992 RMK A01 T02180153  RH  066%=      5-min Rain = 0
KMC1 250707Z 14011KT 22/15 A2992 RMK A01 T02180152  RH  066%=      5-min Rain = 0
KMC1 250708Z 15013KT 22/15 A2992 RMK A01 T02180152  RH  066%=      5-min Rain = 0
KMC1 250709Z 15015G21KT 22/15 A2992 RMK A01 T02190151  RH  066%=      5-min Rain = 0
KMC1 250710Z 14014KT 22/15 A2992 RMK A01 T02190151  RH  065%=      5-min Rain = 0
KMC1 250711Z 14011G16KT 22/15 A2992 RMK A01 T02190150  RH  065%=      5-min Rain = 0
KMC1 250712Z 14015G22KT 22/15 A2992 RMK A01 T02190149  RH  065%=      5-min Rain = 0
KMC1 250713Z 15017G22KT 22/15 A2991 RMK A01 T02190147  RH  064%=      5-min Rain = 0
KMC1 250714Z 15014G19KT 22/15 A2991 RMK A01 T02210147  RH  063%=      5-min Rain = 0
KMC1 250715Z 15013G21KT 22/15 A2992 RMK A01 T02210146  RH  063%=      5-min Rain = 0
KMC1 250716Z 14019G24KT 22/15 A2992 RMK A01 T02220145  RH  062%=      5-min Rain = 0
KMC1 250717Z 14014G23KT 22/15 A2991 RMK A01 T02230146  RH  061%=      5-min Rain = 0
KMC1 250718Z 15014G25KT 22/15 A2991 RMK A01 T02240145  RH  061%=      5-min Rain = 0
KMC1 250719Z 15013KT 22/15 A2991 RMK A01 T02240145  RH  061%=      5-min Rain = 0
KMC1 250720Z 14015G22KT 23/14 A2991 RMK A01 T02250143  RH  060%=      5-min Rain = 0
KMC1 250721Z 15014G22KT 23/14 A2992 RMK A01 T02260143  RH  059%=      5-min Rain = 0
KMC1 250722Z 15015G22KT 23/14 A2992 RMK A01 T02270144  RH  059%=      5-min Rain = 0
KMC1 250723Z 15014G21KT 23/14 A2992 RMK A01 T02270144  RH  059%=      5-min Rain = 0
KMC1 250724Z 14011G18KT 23/15 A2992 RMK A01 T02270146  RH  060%=      5-min Rain = 0
KMC1 250725Z 15015G25KT 23/15 A2991 RMK A01 T02270147  RH  061%=      5-min Rain = 0
KMC1 250726Z 14014G20KT 23/15 A2991 RMK A01 T02270147  RH  061%=      5-min Rain = 0
KMC1 250727Z 14016KT 23/15 A2991 RMK A01 T02270147  RH  061%=      5-min Rain = 0
KMC1 250728Z 14013G21KT 23/15 A2992 RMK A01 T02270147  RH  061%=      5-min Rain = 0
KMC1 250729Z 15016G22KT 23/15 A2992 RMK A01 T02260146  RH  061%=      5-min Rain = 0
KMC1 250730Z 16010KT 23/15 A2992 RMK A01 T02260147  RH  061%=      5-min Rain = 0
KMC1 250731Z 15010KT 23/15 A2992 RMK A01 T02250148  RH  062%=      5-min Rain = 0
KMC1 250732Z 14011G16KT 22/15 A2992 RMK A01 T02240149  RH  062%=      5-min Rain = 0
KMC1 250733Z 15011KT 22/15 A2992 RMK A01 T02220149  RH  063%=      5-min Rain = 0
KMC1 250734Z 15011G18KT 22/15 A2992 RMK A01 T02210148  RH  063%=      5-min Rain = 0
KMC1 250735Z 15008G13KT 22/15 A2992 RMK A01 T02210149  RH  064%=      5-min Rain = 0
KMC1 250736Z 16012KT 22/15 A2992 RMK A01 T02200149  RH  064%=      5-min Rain = 0
KMC1 250737Z 15010G15KT 22/15 A2992 RMK A01 T02190148  RH  064%=      5-min Rain = 0
KMC1 250738Z 16010KT 22/15 A2992 RMK A01 T02190149  RH  064%=      5-min Rain = 0
KMC1 250739Z 16009KT 22/15 A2992 RMK A01 T02180148  RH  065%=      5-min Rain = 0
KMC1 250740Z 17012KT 22/15 A2992 RMK A01 T02170149  RH  065%=      5-min Rain = 0
KMC1 250741Z 17011G16KT 22/15 A2992 RMK A01 T02160148  RH  065%=      5-min Rain = 0
KMC1 250742Z 18009KT 22/15 A2992 RMK A01 T02150149  RH  066%=      5-min Rain = 0
KMC1 250743Z 18010KT 21/15 A2992 RMK A01 T02140150  RH  067%=      5-min Rain = 0
KMC1 250744Z 18011KT 21/15 A2992 RMK A01 T02130150  RH  067%=      5-min Rain = 0
KMC1 250745Z 17013KT 21/15 A2992 RMK A01 T02120151  RH  068%=      5-min Rain = 0
KMC1 250746Z 17011KT 21/15 A2992 RMK A01 T02110151  RH  069%=      5-min Rain = 0
KMC1 250747Z 18010G15KT 21/15 A2992 RMK A01 T02100152  RH  069%=      5-min Rain = 0
KMC1 250748Z 18009G14KT 21/15 A2992 RMK A01 T02100152  RH  069%=      5-min Rain = 0
KMC1 250749Z 17010KT 21/15 A2992 RMK A01 T02090152  RH  070%=      5-min Rain = 0
KMC1 250750Z 18010KT 21/15 A2992 RMK A01 T02090152  RH  070%=      5-min Rain = 0
KMC1 250751Z 18011G17KT 21/15 A2992 RMK A01 T02090152  RH  070%=      5-min Rain = 0
KMC1 250752Z 17012G18KT 21/15 A2992 RMK A01 T02080152  RH  070%=      5-min Rain = 0
KMC1 250753Z 17010KT 21/15 A2992 RMK A01 T02080151  RH  070%=      5-min Rain = 0
KMC1 250754Z 17012KT 21/15 A2992 RMK A01 T02090150  RH  069%=      5-min Rain = 0
KMC1 250755Z 16012G17KT 21/15 A2992 RMK A01 T02100149  RH  068%=      5-min Rain = 0
KMC1 250756Z 16008KT 21/15 A2992 RMK A01 T02110150  RH  068%=      5-min Rain = 0
KMC1 250757Z 17012KT 21/15 A2992 RMK A01 T02110149  RH  068%=      5-min Rain = 0
KMC1 250758Z 16011KT 21/15 A2992 RMK A01 T02110149  RH  068%=      5-min Rain = 0
KMC1 250759Z 16012G17KT 21/15 A2992 RMK A01 T02110150  RH  068%=      5-min Rain = 0
KMC1 250800Z 16009KT 21/15 A2992 RMK A01 T02110150  RH  068%=      5-min Rain = 0
KMC1 250801Z 16006KT 21/15 A2991 RMK A01 T02110148  RH  067%=      5-min Rain = 0
KMC1 250802Z 16005KT 21/15 A2991 RMK A01 T02110149  RH  068%=      5-min Rain = 0
KMC1 250803Z 17008G15KT 21/15 A2992 RMK A01 T02110150  RH  068%=      5-min Rain = 0
KMC1 250804Z 17012G18KT 21/15 A2992 RMK A01 T02110150  RH  068%=      5-min Rain = 0
KMC1 250805Z 17008G14KT 21/15 A2992 RMK A01 T02110149  RH  068%=      5-min Rain = 0
KMC1 250806Z 17010G15KT 21/15 A2992 RMK A01 T02110148  RH  067%=      5-min Rain = 0
KMC1 250807Z 16010KT 21/15 A2992 RMK A01 T02120148  RH  067%=      5-min Rain = 0
KMC1 250808Z 15013G22KT 21/15 A2992 RMK A01 T02120146  RH  066%=      5-min Rain = 0
KMC1 250809Z 15010G19KT 21/15 A2992 RMK A01 T02130145  RH  065%=      5-min Rain = 0
KMC1 250810Z 16012G17KT 22/15 A2992 RMK A01 T02150147  RH  065%=      5-min Rain = 0
KMC1 250811Z 16011G21KT 22/15 A2992 RMK A01 T02150145  RH  064%=      5-min Rain = 0
KMC1 250812Z 17012G18KT 22/14 A2992 RMK A01 T02170144  RH  063%=      5-min Rain = 0
KMC1 250813Z 16008G13KT 22/15 A2992 RMK A01 T02170145  RH  063%=      5-min Rain = 0
KMC1 250814Z 17008KT 22/14 A2992 RMK A01 T02170144  RH  063%=      5-min Rain = 0
KMC1 250815Z 18008G13KT 22/15 A2992 RMK A01 T02170146  RH  064%=      5-min Rain = 0
KMC1 250816Z 18008KT 22/15 A2992 RMK A01 T02170146  RH  064%=      5-min Rain = 0
KMC1 250817Z 17006KT 22/15 A2992 RMK A01 T02160147  RH  065%=      5-min Rain = 0
KMC1 250818Z 16007KT 22/15 A2991 RMK A01 T02150146  RH  065%=      5-min Rain = 0
KMC1 250819Z 16010KT 22/14 A2991 RMK A01 T02150144  RH  064%=      5-min Rain = 0
KMC1 250820Z 17011KT 22/14 A2991 RMK A01 T02160143  RH  063%=      5-min Rain = 0
KMC1 250821Z 16011G18KT 22/14 A2991 RMK A01 T02180142  RH  062%=      5-min Rain = 0
KMC1 250822Z 16011G18KT 22/14 A2991 RMK A01 T02190140  RH  061%=      5-min Rain = 0
KMC1 250823Z 16009G15KT 22/14 A2991 RMK A01 T02210139  RH  060%=      5-min Rain = 0
KMC1 250824Z 16011G16KT 22/14 A2991 RMK A01 T02220139  RH  059%=      5-min Rain = 0
KMC1 250825Z 16013G18KT 22/14 A2991 RMK A01 T02230139  RH  059%=      5-min Rain = 0
KMC1 250826Z 16012G20KT 22/14 A2991 RMK A01 T02240139  RH  059%=      5-min Rain = 0
KMC1 250827Z 15011KT 22/14 A2991 RMK A01 T02240140  RH  059%=      5-min Rain = 0
KMC1 250828Z 16010G15KT 22/14 A2991 RMK A01 T02240140  RH  059%=      5-min Rain = 0
KMC1 250829Z 16009G14KT 22/14 A2991 RMK A01 T02240140  RH  059%=      5-min Rain = 0
KMC1 250830Z 17012KT 22/14 A2991 RMK A01 T02240140  RH  059%=      5-min Rain = 0
KMC1 250831Z 17010KT 22/14 A2991 RMK A01 T02230140  RH  059%=      5-min Rain = 0
KMC1 250832Z 17011KT 22/14 A2991 RMK A01 T02230139  RH  059%=      5-min Rain = 0
KMC1 250833Z 16011G16KT 22/14 A2991 RMK A01 T02240140  RH  059%=      5-min Rain = 0
KMC1 250834Z 16010KT 22/14 A2991 RMK A01 T02240139  RH  059%=      5-min Rain = 0
KMC1 250835Z 17009KT 22/14 A2991 RMK A01 T02240140  RH  059%=      5-min Rain = 0
KMC1 250836Z 17015G22KT 22/14 A2991 RMK A01 T02240140  RH  059%=      5-min Rain = 0
KMC1 250837Z 15009KT 22/14 A2991 RMK A01 T02240139  RH  059%=      5-min Rain = 0
KMC1 250838Z 17012KT 22/14 A299 RMK A01 T02240138  RH  058%=      5-min Rain = 0
KMC1 250839Z 16011KT 23/14 A2991 RMK A01 T02250139  RH  058%=      5-min Rain = 0
KMC1 250840Z 16010G17KT 23/14 A2991 RMK A01 T02250139  RH  058%=      5-min Rain = 0
KMC1 250841Z 15007KT 23/14 A2991 RMK A01 T02250139  RH  059%=      5-min Rain = 0
KMC1 250842Z 16010KT 23/14 A2991 RMK A01 T02250140  RH  059%=      5-min Rain = 0
KMC1 250843Z 17012G17KT 22/14 A2991 RMK A01 T02240139  RH  059%=      5-min Rain = 0
KMC1 250844Z 17012G18KT 22/14 A2991 RMK A01 T02240139  RH  059%=      5-min Rain = 0
KMC1 250845Z 16010G17KT 22/14 A2991 RMK A01 T02240139  RH  058%=      5-min Rain = 0
KMC1 250846Z 16011G16KT 22/14 A2991 RMK A01 T02240139  RH  058%=      5-min Rain = 0
KMC1 250847Z 16013KT 22/14 A2991 RMK A01 T02240138  RH  058%=      5-min Rain = 0
KMC1 250848Z 17009G15KT 22/14 A2991 RMK A01 T02240138  RH  058%=      5-min Rain = 0
KMC1 250849Z 16008G13KT 22/14 A2991 RMK A01 T02240139  RH  059%=      5-min Rain = 0
KMC1 250850Z 16009G14KT 22/14 A2991 RMK A01 T02240138  RH  058%=      5-min Rain = 0
KMC1 250851Z 16010G16KT 22/14 A2991 RMK A01 T02240137  RH  058%=      5-min Rain = 0
KMC1 250852Z 16009KT 22/14 A2991 RMK A01 T02240137  RH  058%=      5-min Rain = 0
KMC1 250853Z 15009G14KT 22/14 A2991 RMK A01 T02240136  RH  057%=      5-min Rain = 0
KMC1 250854Z 16009KT 23/14 A299 RMK A01 T02250135  RH  057%=      5-min Rain = 0
KMC1 250855Z 16013G21KT 23/13 A299 RMK A01 T02250134  RH  056%=      5-min Rain = 0
KMC1 250856Z 16010KT 23/13 A299 RMK A01 T02270133  RH  055%=      5-min Rain = 0
KMC1 250857Z 17011G18KT 23/13 A299 RMK A01 T02280133  RH  055%=      5-min Rain = 0
KMC1 250858Z 16013G20KT 23/13 A299 RMK A01 T02280132  RH  054%=      5-min Rain = 0
KMC1 250859Z 17011KT 23/13 A2991 RMK A01 T02290131  RH  054%=      5-min Rain = 0
KMC1 250900Z 17010G15KT 23/13 A2991 RMK A01 T02300131  RH  054%=      5-min Rain = 0
KMC1 250901Z 17012KT 23/13 A299 RMK A01 T02300132  RH  054%=      5-min Rain = 0
KMC1 250902Z 16010G15KT 23/13 A299 RMK A01 T02300131  RH  053%=      5-min Rain = 0
KMC1 250903Z 17011G16KT 23/13 A299 RMK A01 T02310131  RH  053%=      5-min Rain = 0
KMC1 250904Z 16010KT 23/13 A299 RMK A01 T02310130  RH  053%=      5-min Rain = 0
KMC1 250905Z 16010G15KT 23/13 A299 RMK A01 T02310131  RH  053%=      5-min Rain = 0
KMC1 250906Z 16013G18KT 23/13 A299 RMK A01 T02310129  RH  053%=      5-min Rain = 0
KMC1 250907Z 16009G17KT 23/13 A299 RMK A01 T02320128  RH  052%=      5-min Rain = 0
KMC1 250908Z 17011KT 23/13 A299 RMK A01 T02330130  RH  052%=      5-min Rain = 0
KMC1 250909Z 17011G17KT 23/13 A299 RMK A01 T02330128  RH  052%=      5-min Rain = 0
KMC1 250910Z 17009G14KT 23/13 A2991 RMK A01 T02320128  RH  052%=      5-min Rain = 0
KMC1 250911Z 18011G16KT 23/13 A2991 RMK A01 T02330128  RH  052%=      5-min Rain = 0
KMC1 250912Z 18010KT 23/13 A2991 RMK A01 T02320128  RH  052%=      5-min Rain = 0
KMC1 250913Z 19008KT 23/13 A2991 RMK A01 T02320129  RH  052%=      5-min Rain = 0
KMC1 250914Z 18011KT 23/13 A2991 RMK A01 T02310129  RH  052%=      5-min Rain = 0
KMC1 250915Z 18009KT 23/13 A2991 RMK A01 T02310128  RH  052%=      5-min Rain = 0
KMC1 250916Z 16007KT 23/13 A2991 RMK A01 T02300129  RH  053%=      5-min Rain = 0
KMC1 250917Z 17010KT 23/13 A2991 RMK A01 T02300129  RH  053%=      5-min Rain = 0
KMC1 250918Z 18008KT 23/13 A2991 RMK A01 T02290128  RH  053%=      5-min Rain = 0
KMC1 250919Z 17007KT 23/13 A2991 RMK A01 T02290129  RH  053%=      5-min Rain = 0
KMC1 250920Z 17009KT 23/13 A2991 RMK A01 T02280130  RH  054%=      5-min Rain = 0
KMC1 250921Z 17012KT 23/13 A2991 RMK A01 T02280129  RH  054%=      5-min Rain = 0
KMC1 250922Z 17009KT 23/13 A2991 RMK A01 T02280128  RH  053%=      5-min Rain = 0
KMC1 250923Z 17011KT 23/13 A2992 RMK A01 T02270128  RH  053%=      5-min Rain = 0
KMC1 250924Z 17008KT 23/13 A2992 RMK A01 T02280128  RH  053%=      5-min Rain = 0
KMC1 250925Z 18008KT 23/13 A2992 RMK A01 T02270129  RH  054%=      5-min Rain = 0
KMC1 250926Z 18009KT 23/13 A2992 RMK A01 T02270130  RH  054%=      5-min Rain = 0
KMC1 250927Z 18010KT 23/13 A2992 RMK A01 T02260128  RH  054%=      5-min Rain = 0
KMC1 250928Z 18009KT 23/13 A2992 RMK A01 T02260128  RH  054%=      5-min Rain = 0
KMC1 250929Z 18010KT 23/13 A2992 RMK A01 T02260129  RH  054%=      5-min Rain = 0
KMC1 250930Z 18008KT 23/13 A2992 RMK A01 T02260129  RH  054%=      5-min Rain = 0
KMC1 250931Z 18008KT 23/13 A2992 RMK A01 T02250129  RH  054%=      5-min Rain = 0
KMC1 250932Z 18007KT 23/13 A2992 RMK A01 T02250130  RH  055%=      5-min Rain = 0
KMC1 250933Z 19008KT 22/13 A2992 RMK A01 T02240130  RH  055%=      5-min Rain = 0
KMC1 250934Z 19007KT 22/13 A2992 RMK A01 T02230130  RH  056%=      5-min Rain = 0
KMC1 250935Z 19007KT 22/13 A2992 RMK A01 T02220130  RH  056%=      5-min Rain = 0
KMC1 250936Z 20007KT 22/13 A2992 RMK A01 T02210131  RH  057%=      5-min Rain = 0
KMC1 250937Z 21007KT 22/13 A2992 RMK A01 T02200131  RH  057%=      5-min Rain = 0
KMC1 250938Z 22007KT 22/13 A2992 RMK A01 T02200131  RH  057%=      5-min Rain = 0
KMC1 250939Z 22005KT 22/13 A2992 RMK A01 T02200132  RH  057%=      5-min Rain = 0
KMC1 250940Z 22005KT 22/13 A2992 RMK A01 T02190132  RH  058%=      5-min Rain = 0
KMC1 250941Z 22006KT 22/13 A2992 RMK A01 T02180133  RH  059%=      5-min Rain = 0
KMC1 250942Z 22006KT 22/13 A2992 RMK A01 T02160132  RH  059%=      5-min Rain = 0
KMC1 250943Z 20005KT 22/13 A2992 RMK A01 T02160133  RH  059%=      5-min Rain = 0
KMC1 250944Z 21005KT 22/13 A2992 RMK A01 T02160133  RH  059%=      5-min Rain = 0
KMC1 250945Z 22005KT 22/13 A2992 RMK A01 T02160134  RH  059%=      5-min Rain = 0
KMC1 250946Z 22006KT 22/14 A2992 RMK A01 T02150135  RH  060%=      5-min Rain = 0
KMC1 250947Z 22005KT 21/14 A2992 RMK A01 T02140135  RH  061%=      5-min Rain = 0
KMC1 250948Z 23006KT 21/14 A2992 RMK A01 T02130135  RH  061%=      5-min Rain = 0
KMC1 250949Z 23004KT 21/14 A2992 RMK A01 T02120136  RH  062%=      5-min Rain = 0
KMC1 250950Z 23004KT 21/14 A2992 RMK A01 T02110136  RH  062%=      5-min Rain = 0
KMC1 250951Z 22005KT 21/14 A2992 RMK A01 T02100136  RH  063%=      5-min Rain = 0
KMC1 250952Z 24006KT 21/14 A2992 RMK A01 T02090136  RH  063%=      5-min Rain = 0
KMC1 250953Z 25005KT 21/14 A2992 RMK A01 T02090137  RH  064%=      5-min Rain = 0
KMC1 250954Z 25005KT 21/14 A2992 RMK A01 T02070137  RH  064%=      5-min Rain = 0
KMC1 250955Z 25005KT 21/14 A2992 RMK A01 T02070138  RH  065%=      5-min Rain = 0
KMC1 250956Z 24006KT 21/14 A2992 RMK A01 T02050139  RH  065%=      5-min Rain = 0
KMC1 250957Z 23005KT 20/14 A2992 RMK A01 T02040139  RH  066%=      5-min Rain = 0
KMC1 250958Z 24006KT 20/14 A2992 RMK A01 T02030139  RH  067%=      5-min Rain = 0
KMC1 250959Z 24006KT 20/14 A2992 RMK A01 T02030140  RH  067%=      5-min Rain = 0
KMC1 251000Z 24006KT 20/14 A2992 RMK A01 T02020140  RH  067%=      5-min Rain = 0
KMC1 251001Z 25006KT 20/14 A2992 RMK A01 T02020140  RH  068%=      5-min Rain = 0
KMC1 251002Z 24006KT 20/14 A2992 RMK A01 T02010140  RH  068%=      5-min Rain = 0
KMC1 251003Z 24006KT 20/14 A2992 RMK A01 T02010140  RH  068%=      5-min Rain = 0
KMC1 251004Z 24006KT 20/14 A2992 RMK A01 T02000140  RH  068%=      5-min Rain = 0
KMC1 251005Z 23005KT 20/14 A2992 RMK A01 T02000140  RH  068%=      5-min Rain = 0
KMC1 251006Z 23006KT 20/14 A2992 RMK A01 T02000140  RH  069%=      5-min Rain = 0
KMC1 251007Z 23005KT 20/14 A2992 RMK A01 T01990141  RH  069%=      5-min Rain = 0
KMC1 251008Z 23005KT 20/14 A2992 RMK A01 T01990141  RH  069%=      5-min Rain = 0
KMC1 251009Z 22005KT 20/14 A2992 RMK A01 T01980141  RH  070%=      5-min Rain = 0
KMC1 251010Z 22005KT 20/14 A2992 RMK A01 T01980141  RH  070%=      5-min Rain = 0
KMC1 251011Z 23006KT 20/14 A2992 RMK A01 T01980141  RH  070%=      5-min Rain = 0
KMC1 251012Z 23006KT 20/14 A2992 RMK A01 T01970142  RH  070%=      5-min Rain = 0
KMC1 251013Z 23006KT 20/14 A2992 RMK A01 T01970142  RH  070%=      5-min Rain = 0
KMC1 251014Z 22005KT 20/14 A2992 RMK A01 T01970142  RH  071%=      5-min Rain = 0
KMC1 251015Z 22005KT 20/14 A2992 RMK A01 T01960142  RH  071%=      5-min Rain = 0
KMC1 251016Z 23006KT 20/14 A2992 RMK A01 T01960142  RH  071%=      5-min Rain = 0
KMC1 251017Z 24006KT 20/14 A2992 RMK A01 T01960143  RH  071%=      5-min Rain = 0
KMC1 251018Z 24006KT 20/14 A2992 RMK A01 T01950142  RH  071%=      5-min Rain = 0
KMC1 251019Z 24006KT 20/14 A2992 RMK A01 T01950143  RH  072%=      5-min Rain = 0
KMC1 251020Z 23006KT 19/14 A2992 RMK A01 T01940143  RH  072%=      5-min Rain = 0
KMC1 251021Z 24005KT 19/14 A2992 RMK A01 T01940142  RH  072%=      5-min Rain = 0
KMC1 251022Z 23005KT 19/14 A2992 RMK A01 T01930142  RH  072%=      5-min Rain = 0
KMC1 251023Z 23004KT 19/14 A2992 RMK A01 T01930143  RH  072%=      5-min Rain = 0
KMC1 251024Z 24005KT 19/14 A2992 RMK A01 T01930143  RH  073%=      5-min Rain = 0
KMC1 251025Z 23005KT 19/14 A2992 RMK A01 T01920143  RH  073%=      5-min Rain = 0
KMC1 251026Z 24004KT 19/14 A2992 RMK A01 T01910143  RH  073%=      5-min Rain = 0
KMC1 251027Z 24005KT 19/14 A2992 RMK A01 T01910144  RH  074%=      5-min Rain = 0
KMC1 251028Z 24004KT 19/14 A2992 RMK A01 T01910143  RH  074%=      5-min Rain = 0
KMC1 251029Z 26003KT 19/14 A2992 RMK A01 T01900143  RH  074%=      5-min Rain = 0
KMC1 251030Z 27003KT 19/14 A2992 RMK A01 T01900143  RH  074%=      5-min Rain = 0
KMC1 251031Z 26003KT 19/14 A2993 RMK A01 T01900144  RH  075%=      5-min Rain = 0
KMC1 251032Z 27003KT 19/14 A2993 RMK A01 T01890143  RH  075%=      5-min Rain = 0
KMC1 251033Z 27002KT 19/14 A2993 RMK A01 T01890144  RH  075%=      5-min Rain = 0
KMC1 251034Z 27002KT 19/14 A2993 RMK A01 T01890144  RH  075%=      5-min Rain = 0
KMC1 251035Z 27003KT 19/14 A2993 RMK A01 T01880144  RH  075%=      5-min Rain = 0
KMC1 251036Z 26003KT 19/14 A2993 RMK A01 T01880144  RH  075%=      5-min Rain = 0
KMC1 251037Z 25003KT 19/15 A2993 RMK A01 T01880145  RH  076%=      5-min Rain = 0
KMC1 251038Z 25004KT 19/15 A2993 RMK A01 T01870146  RH  077%=      5-min Rain = 0
KMC1 251039Z 25004KT 19/15 A2993 RMK A01 T01860145  RH  077%=      5-min Rain = 0
KMC1 251040Z 24005KT 19/15 A2993 RMK A01 T01860145  RH  077%=      5-min Rain = 0
KMC1 251041Z 24004KT 19/15 A2993 RMK A01 T01850145  RH  077%=      5-min Rain = 0
KMC1 251042Z 24005KT 18/15 A2993 RMK A01 T01840145  RH  078%=      5-min Rain = 0
KMC1 251043Z 25006KT 18/15 A2993 RMK A01 T01840145  RH  078%=      5-min Rain = 0
KMC1 251044Z 25007KT 18/15 A2993 RMK A01 T01830145  RH  078%=      5-min Rain = 0
KMC1 251045Z 25006KT 18/15 A2993 RMK A01 T01830145  RH  079%=      5-min Rain = 0
KMC1 251046Z 26005KT 18/15 A2993 RMK A01 T01830145  RH  079%=      5-min Rain = 0
KMC1 251047Z 26006KT 18/15 A2993 RMK A01 T01830146  RH  079%=      5-min Rain = 0
KMC1 251048Z 26006KT 18/15 A2993 RMK A01 T01830145  RH  079%=      5-min Rain = 0
KMC1 251049Z 26007KT 18/15 A2993 RMK A01 T01840146  RH  079%=      5-min Rain = 0
KMC1 251050Z 26007KT 18/15 A2993 RMK A01 T01840146  RH  079%=      5-min Rain = 0
KMC1 251051Z 25007KT 18/15 A2993 RMK A01 T01840146  RH  079%=      5-min Rain = 0
KMC1 251052Z 25008KT 18/15 A2993 RMK A01 T01840146  RH  078%=      5-min Rain = 0
KMC1 251053Z 25007KT 19/15 A2992 RMK A01 T01850146  RH  078%=      5-min Rain = 0
KMC1 251054Z 26008KT 19/15 A2992 RMK A01 T01850147  RH  078%=      5-min Rain = 0
KMC1 251055Z 26008KT 19/15 A2992 RMK A01 T01860147  RH  078%=      5-min Rain = 0
KMC1 251056Z 26008KT 19/15 A2992 RMK A01 T01870148  RH  078%=      5-min Rain = 0
KMC1 251057Z 26007KT 19/15 A2992 RMK A01 T01870148  RH  078%=      5-min Rain = 0
KMC1 251058Z 27008KT 19/15 A2992 RMK A01 T01870148  RH  078%=      5-min Rain = 0
KMC1 251059Z 27007KT 19/15 A2992 RMK A01 T01870148  RH  078%=      5-min Rain = 0
KMC1 251100Z 26007KT 19/15 A2992 RMK A01 T01870149  RH  078%=      5-min Rain = 0
KMC1 251101Z 26007KT 19/15 A2992 RMK A01 T01860149  RH  079%=      5-min Rain = 0
KMC1 251102Z 25007KT 19/15 A2992 RMK A01 T01860148  RH  079%=      5-min Rain = 0
KMC1 251103Z 26008KT 19/15 A2992 RMK A01 T01850149  RH  079%=      5-min Rain = 0
KMC1 251104Z 25008KT 19/15 A2992 RMK A01 T01850148  RH  079%=      5-min Rain = 0
KMC1 251105Z 26008KT 19/15 A2992 RMK A01 T01850149  RH  080%=      5-min Rain = 0
KMC1 251106Z 26008KT 18/15 A2992 RMK A01 T01840149  RH  080%=      5-min Rain = 0
KMC1 251107Z 26008KT 18/15 A2992 RMK A01 T01840149  RH  080%=      5-min Rain = 0
KMC1 251108Z 26007KT 18/15 A2992 RMK A01 T01830150  RH  081%=      5-min Rain = 0
KMC1 251109Z 26008KT 18/15 A2992 RMK A01 T01820150  RH  081%=      5-min Rain = 0
KMC1 251110Z 26009KT 18/15 A2992 RMK A01 T01820150  RH  082%=      5-min Rain = 0
KMC1 251111Z 26008KT 18/15 A2992 RMK A01 T01820150  RH  082%=      5-min Rain = 0
KMC1 251112Z 27008KT 18/15 A2992 RMK A01 T01820151  RH  082%=      5-min Rain = 0
KMC1 251113Z 26007KT 18/15 A2992 RMK A01 T01810151  RH  083%=      5-min Rain = 0
KMC1 251114Z 26007KT 18/15 A2992 RMK A01 T01810151  RH  083%=      5-min Rain = 0
KMC1 251115Z 26007KT 18/15 A2992 RMK A01 T01810152  RH  083%=      5-min Rain = 0
KMC1 251116Z 26008KT 18/15 A2992 RMK A01 T01800151  RH  083%=      5-min Rain = 0
KMC1 251117Z 26006KT 18/15 A2992 RMK A01 T01800152  RH  083%=      5-min Rain = 0
KMC1 251118Z 26007KT 18/15 A2992 RMK A01 T01810152  RH  083%=      5-min Rain = 0
KMC1 251119Z 25006KT 18/15 A2992 RMK A01 T01800152  RH  084%=      5-min Rain = 0
KMC1 251120Z 26007KT 18/15 A2992 RMK A01 T01800152  RH  084%=      5-min Rain = 0
KMC1 251121Z 26007KT 18/15 A2992 RMK A01 T01800152  RH  084%=      5-min Rain = 0
KMC1 251122Z 26008KT 18/15 A2992 RMK A01 T01800152  RH  084%=      5-min Rain = 0
KMC1 251123Z 26008KT 18/15 A2991 RMK A01 T01790152  RH  084%=      5-min Rain = 0
KMC1 251124Z 26007KT 18/15 A2991 RMK A01 T01800152  RH  084%=      5-min Rain = 0
KMC1 251125Z 25007KT 18/15 A2992 RMK A01 T01790152  RH  084%=      5-min Rain = 0
KMC1 251126Z 25008KT 18/15 A2992 RMK A01 T01790152  RH  084%=      5-min Rain = 0
KMC1 251127Z 25007KT 18/15 A2992 RMK A01 T01790152  RH  084%=      5-min Rain = 0
KMC1 251128Z 25007KT 18/15 A2992 RMK A01 T01790153  RH  084%=      5-min Rain = 0
KMC1 251129Z 25007KT 18/15 A2992 RMK A01 T01790152  RH  084%=      5-min Rain = 0
KMC1 251130Z 26006KT 18/15 A2992 RMK A01 T01790153  RH  085%=      5-min Rain = 0
KMC1 251131Z 26007KT 18/15 A2992 RMK A01 T01790152  RH  085%=      5-min Rain = 0
KMC1 251132Z 25006KT 18/15 A2992 RMK A01 T01780152  RH  085%=      5-min Rain = 0
KMC1 251133Z 25006KT 18/15 A2992 RMK A01 T01780152  RH  085%=      5-min Rain = 0
KMC1 251134Z 25006KT 18/15 A2992 RMK A01 T01780152  RH  085%=      5-min Rain = 0
KMC1 251135Z 25007KT 18/15 A2992 RMK A01 T01780152  RH  085%=      5-min Rain = 0
KMC1 251136Z 25007KT 18/15 A2992 RMK A01 T01790153  RH  085%=      5-min Rain = 0
KMC1 251137Z 25006KT 18/15 A2992 RMK A01 T01780153  RH  085%=      5-min Rain = 0
KMC1 251138Z 24006KT 18/15 A2992 RMK A01 T01780152  RH  085%=      5-min Rain = 0
KMC1 251139Z 24006KT 18/15 A2992 RMK A01 T01780152  RH  085%=      5-min Rain = 0
KMC1 251140Z 25005KT 18/15 A2992 RMK A01 T01770152  RH  085%=      5-min Rain = 0
KMC1 251141Z 25006KT 18/15 A2992 RMK A01 T01770152  RH  085%=      5-min Rain = 0
KMC1 251142Z 24005KT 18/15 A2992 RMK A01 T01760152  RH  086%=      5-min Rain = 0
KMC1 251143Z 24007KT 18/15 A2992 RMK A01 T01760152  RH  086%=      5-min Rain = 0
KMC1 251144Z 24007KT 18/15 A2992 RMK A01 T01760152  RH  086%=      5-min Rain = 0
KMC1 251145Z 24007KT 18/15 A2992 RMK A01 T01760152  RH  086%=      5-min Rain = 0
KMC1 251146Z 24006KT 18/15 A2992 RMK A01 T01760152  RH  086%=      5-min Rain = 0
KMC1 251147Z 24007KT 18/15 A2992 RMK A01 T01750152  RH  086%=      5-min Rain = 0
KMC1 251148Z 24006KT 18/15 A2992 RMK A01 T01760152  RH  086%=      5-min Rain = 0
KMC1 251149Z 24006KT 18/15 A2992 RMK A01 T01750152  RH  086%=      5-min Rain = 0
KMC1 251150Z 24006KT 18/15 A2992 RMK A01 T01750152  RH  086%=      5-min Rain = 0
KMC1 251151Z 25005KT 18/15 A2992 RMK A01 T01750152  RH  086%=      5-min Rain = 0
KMC1 251152Z 25006KT 18/15 A2992 RMK A01 T01750152  RH  086%=      5-min Rain = 0
KMC1 251153Z 24006KT 18/15 A2992 RMK A01 T01750152  RH  086%=      5-min Rain = 0
KMC1 251154Z 24006KT 18/15 A2992 RMK A01 T01750152  RH  086%=      5-min Rain = 0
KMC1 251155Z 24006KT 18/15 A2992 RMK A01 T01750152  RH  086%=      5-min Rain = 0
KMC1 251156Z 24004KT 17/15 A2992 RMK A01 T01740152  RH  087%=      5-min Rain = 0
KMC1 251157Z 24005KT 17/15 A2992 RMK A01 T01740152  RH  087%=      5-min Rain = 0
KMC1 251158Z 25005KT 17/15 A2992 RMK A01 T01740152  RH  087%=      5-min Rain = 0
KMC1 251159Z 25005KT 17/15 A2992 RMK A01 T01740152  RH  087%=      5-min Rain = 0
KMC1 251200Z 25004KT 17/15 A2992 RMK A01 T01740152  RH  087%=      5-min Rain = 0
KMC1 251201Z 24005KT 17/15 A2993 RMK A01 T01740152  RH  087%=      5-min Rain = 0
KMC1 251202Z 24004KT 17/15 A2993 RMK A01 T01740152  RH  087%=      5-min Rain = 0
KMC1 251203Z 24004KT 17/15 A2993 RMK A01 T01730152  RH  087%=      5-min Rain = 0
KMC1 251204Z 23004KT 17/15 A2993 RMK A01 T01730152  RH  087%=      5-min Rain = 0
KMC1 251205Z 23004KT 17/15 A2993 RMK A01 T01730152  RH  088%=      5-min Rain = 0
KMC1 251206Z 23004KT 17/15 A2993 RMK A01 T01730152  RH  088%=      5-min Rain = 0
KMC1 251207Z 23004KT 17/15 A2993 RMK A01 T01720152  RH  088%=      5-min Rain = 0
KMC1 251208Z 24003KT 17/15 A2993 RMK A01 T01720152  RH  088%=      5-min Rain = 0
KMC1 251209Z 23003KT 17/15 A2993 RMK A01 T01720152  RH  088%=      5-min Rain = 0
KMC1 251210Z 23003KT 17/15 A2993 RMK A01 T01720152  RH  088%=      5-min Rain = 0
KMC1 251211Z 24003KT 17/15 A2993 RMK A01 T01720152  RH  088%=      5-min Rain = 0
KMC1 251212Z 24003KT 17/15 A2993 RMK A01 T01720152  RH  088%=      5-min Rain = 0
KMC1 251213Z 24003KT 17/15 A2993 RMK A01 T01710152  RH  088%=      5-min Rain = 0
KMC1 251214Z 24003KT 17/15 A2993 RMK A01 T01720152  RH  088%=      5-min Rain = 0
KMC1 251215Z 24003KT 17/15 A2993 RMK A01 T01720153  RH  088%=      5-min Rain = 0
KMC1 251216Z 23003KT 17/15 A2993 RMK A01 T01720152  RH  088%=      5-min Rain = 0
KMC1 251217Z 23004KT 17/15 A2993 RMK A01 T01720152  RH  088%=      5-min Rain = 0
KMC1 251218Z 22003KT 17/15 A2993 RMK A01 T01730153  RH  088%=      5-min Rain = 0
KMC1 251219Z 21003KT 17/15 A2993 RMK A01 T01730152  RH  088%=      5-min Rain = 0
KMC1 251220Z 21003KT 17/15 A2993 RMK A01 T01730152  RH  087%=      5-min Rain = 0
KMC1 251221Z 21003KT 17/15 A2993 RMK A01 T01740153  RH  087%=      5-min Rain = 0
KMC1 251222Z 21003KT 17/15 A2993 RMK A01 T01740153  RH  087%=      5-min Rain = 0
KMC1 251223Z 21002KT 18/15 A2993 RMK A01 T01750153  RH  087%=      5-min Rain = 0
KMC1 251224Z 22003KT 18/15 A2994 RMK A01 T01750153  RH  087%=      5-min Rain = 0
KMC1 251225Z 22002KT 18/15 A2994 RMK A01 T01750154  RH  087%=      5-min Rain = 0
KMC1 251226Z 22002KT 18/16 A2994 RMK A01 T01760155  RH  088%=      5-min Rain = 0
KMC1 251227Z 22002KT 18/16 A2994 RMK A01 T01760155  RH  087%=      5-min Rain = 0
KMC1 251228Z 22003KT 18/15 A2994 RMK A01 T01760154  RH  087%=      5-min Rain = 0
KMC1 251229Z 23002KT 18/15 A2994 RMK A01 T01770154  RH  087%=      5-min Rain = 0
KMC1 251230Z 23003KT 18/16 A2994 RMK A01 T01770155  RH  087%=      5-min Rain = 0
KMC1 251231Z 23003KT 18/16 A2994 RMK A01 T01770155  RH  087%=      5-min Rain = 0
KMC1 251232Z 24003KT 18/16 A2994 RMK A01 T01780155  RH  087%=      5-min Rain = 0
KMC1 251233Z 25002KT 18/16 A2994 RMK A01 T01780155  RH  086%=      5-min Rain = 0
KMC1 251234Z 25002KT 18/16 A2994 RMK A01 T01790157  RH  087%=      5-min Rain = 0
KMC1 251235Z 26002KT 18/16 A2994 RMK A01 T01790156  RH  086%=      5-min Rain = 0
KMC1 251236Z 29002KT 18/16 A2994 RMK A01 T01800156  RH  085%=      5-min Rain = 0
KMC1 251237Z 30002KT 18/16 A2995 RMK A01 T01810156  RH  085%=      5-min Rain = 0
KMC1 251238Z 30002KT 18/16 A2995 RMK A01 T01820157  RH  085%=      5-min Rain = 0
KMC1 251239Z 32001KT 18/16 A2995 RMK A01 T01830155  RH  084%=      5-min Rain = 0
KMC1 251240Z 33002KT 18/16 A2996 RMK A01 T01830156  RH  084%=      5-min Rain = 0
KMC1 251241Z 36003KT 18/16 A2996 RMK A01 T01840157  RH  084%=      5-min Rain = 0
KMC1 251242Z 01004KT 18/16 A2996 RMK A01 T01840156  RH  084%=      5-min Rain = 0
KMC1 251243Z 02006KT 18/16 A2996 RMK A01 T01840157  RH  084%=      5-min Rain = 0
KMC1 251244Z 03008KT 19/16 A2997 RMK A01 T01850158  RH  084%=      5-min Rain = 0
KMC1 251245Z 03006KT 19/16 A2997 RMK A01 T01850159  RH  084%=      5-min Rain = 0
KMC1 251246Z 03006KT 19/16 A2997 RMK A01 T01860160  RH  085%=      5-min Rain = 0
KMC1 251247Z 03006KT 19/16 A2997 RMK A01 T01860160  RH  085%=      5-min Rain = 0
KMC1 251248Z 04007KT 19/16 A2997 RMK A01 T01860160  RH  085%=      5-min Rain = 0
KMC1 251249Z 04005KT 19/16 A2997 RMK A01 T01860159  RH  084%=      5-min Rain = 0
KMC1 251250Z 05003KT 19/16 A2997 RMK A01 T01860159  RH  084%=      5-min Rain = 0
KMC1 251251Z 05003KT 19/16 A2997 RMK A01 T01870160  RH  084%=      5-min Rain = 0
KMC1 251252Z 05005KT 19/16 A2997 RMK A01 T01880159  RH  083%=      5-min Rain = 0
KMC1 251253Z 04004KT 19/16 A2997 RMK A01 T01890157  RH  082%=      5-min Rain = 0
KMC1 251254Z 04005KT 19/16 A2998 RMK A01 T01900159  RH  082%=      5-min Rain = 0
KMC1 251255Z 04006KT 19/16 A2998 RMK A01 T01910158  RH  081%=      5-min Rain = 0
KMC1 251256Z 04005KT 19/16 A2998 RMK A01 T01920160  RH  082%=      5-min Rain = 0
KMC1 251257Z 04004KT 19/16 A2998 RMK A01 T01930160  RH  082%=      5-min Rain = 0
KMC1 251258Z 04003KT 19/16 A2998 RMK A01 T01940160  RH  081%=      5-min Rain = 0
KMC1 251259Z 05002KT 20/16 A2998 RMK A01 T01950160  RH  080%=      5-min Rain = 0
KMC1 251300Z 04002KT 20/16 A2998 RMK A01 T01960161  RH  081%=      5-min Rain = 0
KMC1 251301Z 05003KT 20/16 A2999 RMK A01 T01970160  RH  079%=      5-min Rain = 0
KMC1 251302Z 05003KT 20/16 A2999 RMK A01 T01980158  RH  078%=      5-min Rain = 0
KMC1 251303Z 06003KT 20/16 A2999 RMK A01 T01980159  RH  078%=      5-min Rain = 0
KMC1 251304Z 07003KT 20/16 A30 RMK A01 T01980160  RH  079%=      5-min Rain = 0
KMC1 251305Z 07003KT 20/16 A30 RMK A01 T02000161  RH  078%=      5-min Rain = 0
KMC1 251306Z 08003KT 20/16 A3001 RMK A01 T02010161  RH  078%=      5-min Rain = 0
KMC1 251307Z 06005KT 20/16 A3001 RMK A01 T02020162  RH  078%=      5-min Rain = 0
KMC1 251308Z 08003KT 20/16 A3002 RMK A01 T02030159  RH  076%=      5-min Rain = 0
KMC1 251309Z 08003KT 20/16 A3002 RMK A01 T02040161  RH  077%=      5-min Rain = 0
KMC1 251310Z 11004KT 20/16 A3002 RMK A01 T02040159  RH  075%=      5-min Rain = 0
KMC1 251311Z 10003KT 21/16 A3002 RMK A01 T02050161  RH  076%=      5-min Rain = 0
KMC1 251312Z 11004KT 21/16 A3003 RMK A01 T02060161  RH  076%=      5-min Rain = 0
KMC1 251313Z 09002KT 21/16 A3003 RMK A01 T02060163  RH  076%=      5-min Rain = 0
KMC1 251314Z 09003KT 21/16 A3003 RMK A01 T02060162  RH  076%=      5-min Rain = 0
KMC1 251315Z 05002KT 21/16 A3002 RMK A01 T02070161  RH  075%=      5-min Rain = 0
KMC1 251316Z 05002KT 21/16 A3002 RMK A01 T02080158  RH  073%=      5-min Rain = 0
KMC1 251317Z 08002KT 21/16 A3002 RMK A01 T02080160  RH  074%=      5-min Rain = 0
KMC1 251318Z 10004KT 21/16 A3003 RMK A01 T02080161  RH  074%=      5-min Rain = 0
KMC1 251319Z 10005KT 21/16 A3003 RMK A01 T02080161  RH  074%=      5-min Rain = 0
KMC1 251320Z 10005KT 21/16 A3003 RMK A01 T02090162  RH  075%=      5-min Rain = 0
KMC1 251321Z 10006KT 21/16 A3003 RMK A01 T02090163  RH  075%=      5-min Rain = 0
KMC1 251322Z 10003KT 21/16 A3003 RMK A01 T02090162  RH  075%=      5-min Rain = 0
KMC1 251323Z 12003KT 21/16 A3003 RMK A01 T02100161  RH  074%=      5-min Rain = 0
KMC1 251324Z 12002KT 21/16 A3003 RMK A01 T02100160  RH  073%=      5-min Rain = 0
KMC1 251325Z 13002KT 21/16 A3003 RMK A01 T02100159  RH  073%=      5-min Rain = 0
KMC1 251326Z 10001KT 21/16 A3003 RMK A01 T02110156  RH  071%=      5-min Rain = 0
KMC1 251327Z 09002KT 21/16 A3003 RMK A01 T02110155  RH  070%=      5-min Rain = 0
KMC1 251328Z 09003KT 21/16 A3003 RMK A01 T02110158  RH  071%=      5-min Rain = 0
KMC1 251329Z 07001KT 21/16 A3003 RMK A01 T02120160  RH  072%=      5-min Rain = 0
KMC1 251330Z 09002KT 21/16 A3003 RMK A01 T02130160  RH  072%=      5-min Rain = 0
KMC1 251331Z 09002KT 21/16 A3003 RMK A01 T02140155  RH  069%=      5-min Rain = 0
KMC1 251332Z 06002KT 22/16 A3003 RMK A01 T02150161  RH  071%=      5-min Rain = 0
KMC1 251333Z 07003KT 22/16 A3003 RMK A01 T02160158  RH  069%=      5-min Rain = 0
KMC1 251334Z 09003KT 22/16 A3003 RMK A01 T02170158  RH  069%=      5-min Rain = 0
KMC1 251335Z 09002KT 22/16 A3003 RMK A01 T02170156  RH  068%=      5-min Rain = 0
KMC1 251336Z 09003KT 22/16 A3003 RMK A01 T02170157  RH  069%=      5-min Rain = 0
KMC1 251337Z 07003KT 22/16 A3003 RMK A01 T02160156  RH  069%=      5-min Rain = 0
KMC1 251338Z 07003KT 22/16 A3003 RMK A01 T02150155  RH  068%=      5-min Rain = 0
KMC1 251339Z 07001KT 22/16 A3003 RMK A01 T02160156  RH  069%=      5-min Rain = 0
KMC1 251340Z 07003KT 22/16 A3003 RMK A01 T02170157  RH  069%=      5-min Rain = 0
KMC1 251341Z 10003KT 22/15 A3004 RMK A01 T02180153  RH  067%=      5-min Rain = 0
KMC1 251342Z 08003KT 22/16 A3004 RMK A01 T02180158  RH  069%=      5-min Rain = 0
KMC1 251343Z 05002KT 22/16 A3004 RMK A01 T02190155  RH  067%=      5-min Rain = 0
KMC1 251344Z 04003KT 22/16 A3004 RMK A01 T02190156  RH  067%=      5-min Rain = 0
KMC1 251345Z 03002KT 22/16 A3004 RMK A01 T02190158  RH  068%=      5-min Rain = 0
KMC1 251346Z 14000KT 22/16 A3004 RMK A01 T02200158  RH  068%=      5-min Rain = 0
KMC1 251347Z 07001KT 22/16 A3004 RMK A01 T02200157  RH  067%=      5-min Rain = 0
KMC1 251348Z 03001KT 22/16 A3004 RMK A01 T02210156  RH  067%=      5-min Rain = 0
KMC1 251349Z 04002KT 22/16 A3004 RMK A01 T02220159  RH  068%=      5-min Rain = 0
KMC1 251350Z 07003KT 22/16 A3004 RMK A01 T02230162  RH  068%=      5-min Rain = 0
KMC1 251351Z 06003KT 22/16 A3004 RMK A01 T02240161  RH  067%=      5-min Rain = 0
KMC1 251352Z 06003KT 23/16 A3004 RMK A01 T02250160  RH  066%=      5-min Rain = 0
KMC1 251353Z 06003KT 23/16 A3004 RMK A01 T02250160  RH  067%=      5-min Rain = 0
KMC1 251354Z 06002KT 23/16 A3004 RMK A01 T02260160  RH  067%=      5-min Rain = 0
KMC1 251355Z 03001KT 23/16 A3004 RMK A01 T02270158  RH  065%=      5-min Rain = 0
KMC1 251356Z 04003KT 23/16 A3004 RMK A01 T02270157  RH  065%=      5-min Rain = 0
KMC1 251357Z 04003KT 22/16 A3004 RMK A01 T02240158  RH  066%=      5-min Rain = 0
KMC1 251358Z 04004KT 22/16 A3004 RMK A01 T02230156  RH  066%=      5-min Rain = 0
KMC1 251359Z 04003KT 22/16 A3004 RMK A01 T02220155  RH  066%=      5-min Rain = 0
KMC1 251400Z 05003KT 22/16 A3004 RMK A01 T02220158  RH  067%=      5-min Rain = 0
KMC1 251401Z 02001KT 22/16 A3004 RMK A01 T02230159  RH  067%=      5-min Rain = 0
KMC1 251402Z 35002KT 23/16 A3004 RMK A01 T02250158  RH  066%=      5-min Rain = 0
KMC1 251403Z 03002KT 23/16 A3004 RMK A01 T02260158  RH  065%=      5-min Rain = 0
KMC1 251404Z 04002KT 23/16 A3004 RMK A01 T02260155  RH  064%=      5-min Rain = 0
KMC1 251405Z 04001KT 22/15 A3004 RMK A01 T02240152  RH  064%=      5-min Rain = 0
KMC1 251406Z 06001KT 22/16 A3004 RMK A01 T02240155  RH  065%=      5-min Rain = 0
KMC1 251407Z 08001KT 22/15 A3004 RMK A01 T02240153  RH  064%=      5-min Rain = 0
KMC1 251408Z 05002KT 23/16 A3004 RMK A01 T02260156  RH  065%=      5-min Rain = 0
KMC1 251409Z 04003KT 23/16 A3004 RMK A01 T02270161  RH  066%=      5-min Rain = 0
KMC1 251410Z 03005KT 23/16 A3004 RMK A01 T02280158  RH  065%=      5-min Rain = 0
KMC1 251411Z 05003KT 23/16 A3004 RMK A01 T02280159  RH  065%=      5-min Rain = 0
KMC1 251412Z 09002KT 23/16 A3004 RMK A01 T02280160  RH  065%=      5-min Rain = 0
KMC1 251413Z 05002KT 23/16 A3004 RMK A01 T02290156  RH  064%=      5-min Rain = 0
KMC1 251414Z 05002KT 23/16 A3004 RMK A01 T02290161  RH  066%=      5-min Rain = 0
KMC1 251415Z 08002KT 23/16 A3004 RMK A01 T02290161  RH  065%=      5-min Rain = 0
KMC1 251416Z 11002KT 23/16 A3005 RMK A01 T02300160  RH  065%=      5-min Rain = 0
KMC1 251417Z 11002KT 23/16 A3005 RMK A01 T02300158  RH  064%=      5-min Rain = 0
KMC1 251418Z 09003KT 23/16 A3005 RMK A01 T02290160  RH  065%=      5-min Rain = 0
KMC1 251419Z 11006KT 23/16 A3005 RMK A01 T02290160  RH  065%=      5-min Rain = 0
KMC1 251420Z 11005KT 23/16 A3005 RMK A01 T02280157  RH  064%=      5-min Rain = 0
KMC1 251421Z 14003KT 23/16 A3005 RMK A01 T02260158  RH  065%=      5-min Rain = 0
KMC1 251422Z 11002KT 23/16 A3005 RMK A01 T02270160  RH  066%=      5-min Rain = 0
KMC1 251423Z 08002KT 23/16 A3005 RMK A01 T02270160  RH  066%=      5-min Rain = 0
KMC1 251424Z 10002KT 23/16 A3005 RMK A01 T02280159  RH  065%=      5-min Rain = 0
KMC1 251425Z 15001KT 23/16 A3004 RMK A01 T02280158  RH  064%=      5-min Rain = 0
KMC1 251426Z 14002KT 23/16 A3004 RMK A01 T02290156  RH  063%=      5-min Rain = 0
KMC1 251427Z 15003KT 23/16 A3004 RMK A01 T02290159  RH  064%=      5-min Rain = 0
KMC1 251428Z 15003KT 23/16 A3004 RMK A01 T02290157  RH  064%=      5-min Rain = 0
KMC1 251429Z 15002KT 23/15 A3004 RMK A01 T02300154  RH  062%=      5-min Rain = 0
KMC1 251430Z 13003KT 23/15 A3005 RMK A01 T02300154  RH  062%=      5-min Rain = 0
KMC1 251431Z 16003KT 23/16 A3005 RMK A01 T02300156  RH  063%=      5-min Rain = 0
KMC1 251432Z 16003KT 23/16 A3005 RMK A01 T02300158  RH  064%=      5-min Rain = 0
KMC1 251433Z 15001KT 23/16 A3005 RMK A01 T02300158  RH  064%=      5-min Rain = 0
KMC1 251434Z 06004KT 23/16 A3005 RMK A01 T02300160  RH  065%=      5-min Rain = 0
KMC1 251435Z 07004KT 23/16 A3005 RMK A01 T02300161  RH  065%=      5-min Rain = 0
KMC1 251436Z 10004KT 23/16 A3005 RMK A01 T02300161  RH  065%=      5-min Rain = 0
KMC1 251437Z 11003KT 23/16 A3005 RMK A01 T02300160  RH  065%=      5-min Rain = 0
KMC1 251438Z 11002KT 23/16 A3005 RMK A01 T02300159  RH  064%=      5-min Rain = 0
KMC1 251439Z 12001KT 23/16 A3005 RMK A01 T02290156  RH  063%=      5-min Rain = 0
KMC1 251440Z 12002KT 23/16 A3005 RMK A01 T02290162  RH  066%=      5-min Rain = 0
KMC1 251441Z 12002KT 23/16 A3005 RMK A01 T02300161  RH  065%=      5-min Rain = 0
KMC1 251442Z 13003KT 23/16 A3005 RMK A01 T02300160  RH  065%=      5-min Rain = 0
KMC1 251443Z 13003KT 23/16 A3005 RMK A01 T02310156  RH  063%=      5-min Rain = 0
KMC1 251444Z 12003KT 23/16 A3005 RMK A01 T02300157  RH  064%=      5-min Rain = 0
KMC1 251445Z 09004KT 23/16 A3005 RMK A01 T02300163  RH  066%=      5-min Rain = 0
KMC1 251446Z 10004KT 23/16 A3005 RMK A01 T02310163  RH  066%=      5-min Rain = 0
KMC1 251447Z 12005KT 23/16 A3005 RMK A01 T02310160  RH  064%=      5-min Rain = 0
KMC1 251448Z 11004KT 23/16 A3005 RMK A01 T02310157  RH  063%=      5-min Rain = 0
KMC1 251449Z 12003KT 23/16 A3005 RMK A01 T02310158  RH  064%=      5-min Rain = 0
KMC1 251450Z 15001KT 23/16 A3005 RMK A01 T02310160  RH  064%=      5-min Rain = 0
KMC1 251451Z 15002KT 23/16 A3005 RMK A01 T02310158  RH  064%=      5-min Rain = 0
KMC1 251452Z 12002KT 23/16 A3005 RMK A01 T02310158  RH  064%=      5-min Rain = 0
KMC1 251453Z 12004KT 23/16 A3005 RMK A01 T02310162  RH  065%=      5-min Rain = 0
KMC1 251454Z 13005KT 23/16 A3005 RMK A01 T02320158  RH  063%=      5-min Rain = 0
KMC1 251455Z 14004KT 23/16 A3005 RMK A01 T02310159  RH  064%=      5-min Rain = 0
KMC1 251456Z 13003KT 23/16 A3005 RMK A01 T02310160  RH  064%=      5-min Rain = 0
KMC1 251457Z 14004KT 23/16 A3005 RMK A01 T02310160  RH  064%=      5-min Rain = 0
KMC1 251458Z 14003KT 23/16 A3005 RMK A01 T02310162  RH  065%=      5-min Rain = 0
KMC1 251459Z 12003KT 23/16 A3005 RMK A01 T02320164  RH  065%=      5-min Rain = 0
KMC1 251500Z 14003KT 23/17 A3005 RMK A01 T02330166  RH  066%=      5-min Rain = 0
KMC1 251501Z 13004KT 23/17 A3005 RMK A01 T02340167  RH  066%=      5-min Rain = 0
KMC1 251502Z 14004KT 23/16 A3005 RMK A01 T02340160  RH  063%=      5-min Rain = 0
KMC1 251503Z 16003KT 23/16 A3005 RMK A01 T02330162  RH  064%=      5-min Rain = 0
KMC1 251504Z 15003KT 23/17 A3005 RMK A01 T02330167  RH  066%=      5-min Rain = 0
KMC1 251505Z 15002KT 23/17 A3005 RMK A01 T02340165  RH  065%=      5-min Rain = 0
KMC1 251506Z 12002KT 23/17 A3005 RMK A01 T02340165  RH  065%=      5-min Rain = 0
KMC1 251507Z 12003KT 24/16 A3005 RMK A01 T02350164  RH  065%=      5-min Rain = 0
KMC1 251508Z 14002KT 23/17 A3005 RMK A01 T02340165  RH  065%=      5-min Rain = 0
KMC1 251509Z 16003KT 23/17 A3005 RMK A01 T02340166  RH  066%=      5-min Rain = 0
KMC1 251510Z 13003KT 24/17 A3005 RMK A01 T02350170  RH  067%=      5-min Rain = 0
KMC1 251511Z 12006KT 24/17 A3005 RMK A01 T02360168  RH  066%=      5-min Rain = 0
KMC1 251512Z 12004KT 24/17 A3005 RMK A01 T02360166  RH  065%=      5-min Rain = 0
KMC1 251513Z 11003KT 24/17 A3005 RMK A01 T02360168  RH  065%=      5-min Rain = 0
KMC1 251514Z 15004KT 24/17 A3005 RMK A01 T02360171  RH  067%=      5-min Rain = 0
KMC1 251515Z 16002KT 24/17 A3005 RMK A01 T02370167  RH  065%=      5-min Rain = 0
KMC1 251516Z 14001KT 24/17 A3005 RMK A01 T02370168  RH  065%=      5-min Rain = 0
KMC1 251517Z 15003KT 24/17 A3005 RMK A01 T02370170  RH  066%=      5-min Rain = 0
KMC1 251518Z 15004KT 24/17 A3005 RMK A01 T02380168  RH  065%=      5-min Rain = 0
KMC1 251519Z 14003KT 24/17 A3005 RMK A01 T02370168  RH  065%=      5-min Rain = 0
KMC1 251520Z 16003KT 24/17 A3005 RMK A01 T02380172  RH  067%=      5-min Rain = 0
KMC1 251521Z 14003KT 24/17 A3005 RMK A01 T02390168  RH  065%=      5-min Rain = 0
KMC1 251522Z 11001KT 24/17 A3005 RMK A01 T02390169  RH  065%=      5-min Rain = 0
KMC1 251523Z 12001KT 24/17 A3005 RMK A01 T02380169  RH  065%=      5-min Rain = 0
KMC1 251524Z 11001KT 24/17 A3005 RMK A01 T02390168  RH  065%=      5-min Rain = 0
KMC1 251525Z 08003KT 24/17 A3005 RMK A01 T02390167  RH  064%=      5-min Rain = 0
KMC1 251526Z 11004KT 24/17 A3005 RMK A01 T02400170  RH  065%=      5-min Rain = 0
KMC1 251527Z 12005KT 24/17 A3005 RMK A01 T02400170  RH  065%=      5-min Rain = 0
KMC1 251528Z 13003KT 24/17 A3005 RMK A01 T02400172  RH  065%=      5-min Rain = 0
KMC1 251529Z 11004KT 24/17 A3005 RMK A01 T02410170  RH  065%=      5-min Rain = 0
KMC1 251530Z 10003KT 24/17 A3005 RMK A01 T02410168  RH  064%=      5-min Rain = 0
KMC1 251531Z 08002KT 24/17 A3005 RMK A01 T02410174  RH  066%=      5-min Rain = 0
KMC1 251532Z 11001KT 24/17 A3005 RMK A01 T02420170  RH  064%=      5-min Rain = 0
KMC1 251533Z 06000KT 24/17 A3005 RMK A01 T02440169  RH  063%=      5-min Rain = 0
KMC1 251534Z 08003KT 25/17 A3005 RMK A01 T02450172  RH  064%=      5-min Rain = 0
KMC1 251535Z 07002KT 25/18 A3005 RMK A01 T02480180  RH  066%=      5-min Rain = 0
KMC1 251541Z 12004KT 25/18 A3005 RMK A01 T02480175  RH  064%=      5-min Rain = 0
KMC1 251542Z 12003KT 25/18 A3005 RMK A01 T02470175  RH  064%=      5-min Rain = 0
KMC1 251543Z 13004KT 25/17 A3005 RMK A01 T02460174  RH  064%=      5-min Rain = 0
KMC1 251544Z 10002KT 25/17 A3005 RMK A01 T02460173  RH  064%=      5-min Rain = 0
KMC1 251545Z 32001KT 25/17 A3005 RMK A01 T02460174  RH  064%=      5-min Rain = 0
KMC1 251546Z 34003KT 25/18 A3005 RMK A01 T02460176  RH  065%=      5-min Rain = 0
KMC1 251547Z 22002KT 25/18 A3005 RMK A01 T02470176  RH  065%=      5-min Rain = 0
KMC1 251548Z 21003KT 25/18 A3005 RMK A01 T02490182  RH  066%=      5-min Rain = 0
KMC1 251549Z 15003KT 25/18 A3005 RMK A01 T02510184  RH  066%=      5-min Rain = 0
KMC1 251550Z 13004KT 25/18 A3005 RMK A01 T02540181  RH  064%=      5-min Rain = 0
KMC1 251551Z 12003KT 25/18 A3005 RMK A01 T02540184  RH  065%=      5-min Rain = 0
KMC1 251552Z 11001KT 26/18 A3005 RMK A01 T02550179  RH  063%=      5-min Rain = 0
KMC1 251553Z 11000KT 25/18 A3005 RMK A01 T02540180  RH  064%=      5-min Rain = 0
KMC1 251554Z 17002KT 26/19 A3005 RMK A01 T02550185  RH  065%=      5-min Rain = 0
KMC1 251555Z 15004KT 26/19 A3005 RMK A01 T02560186  RH  065%=      5-min Rain = 0
KMC1 251556Z 15004KT 26/19 A3005 RMK A01 T02570187  RH  065%=      5-min Rain = 0
KMC1 251557Z 16001KT 26/18 A3005 RMK A01 T02580184  RH  064%=      5-min Rain = 0
KMC1 251558Z 17003KT 26/19 A3005 RMK A01 T02580186  RH  065%=      5-min Rain = 0
KMC1 251559Z 19003KT 26/19 A3005 RMK A01 T02580187  RH  065%=      5-min Rain = 0
KMC1 251600Z 15004KT 26/19 A3005 RMK A01 T02580187  RH  065%=      5-min Rain = 0
KMC1 251601Z 15006KT 26/19 A3005 RMK A01 T02590186  RH  064%=      5-min Rain = 0
KMC1 251602Z 13008KT 26/19 A3005 RMK A01 T02590187  RH  065%=      5-min Rain = 0
KMC1 251603Z 12006KT 26/19 A3005 RMK A01 T02590186  RH  064%=      5-min Rain = 0
KMC1 251604Z 13005KT 26/19 A3005 RMK A01 T02590188  RH  065%=      5-min Rain = 0
KMC1 251605Z 13006KT 26/19 A3005 RMK A01 T02580187  RH  065%=      5-min Rain = 0
KMC1 251606Z 16003KT 26/19 A3005 RMK A01 T02590186  RH  064%=      5-min Rain = 0
KMC1 251607Z 13004KT 26/19 A3005 RMK A01 T02600194  RH  067%=      5-min Rain = 0
KMC1 251608Z 18006KT 26/19 A3005 RMK A01 T02620190  RH  064%=      5-min Rain = 0
KMC1 251609Z 16008KT 26/19 A3005 RMK A01 T02630192  RH  065%=      5-min Rain = 0
KMC1 251610Z 14009KT 26/19 A3005 RMK A01 T02640192  RH  065%=      5-min Rain = 0
KMC1 251611Z 13007KT 26/19 A3005 RMK A01 T02640193  RH  065%=      5-min Rain = 0
KMC1 251612Z 16006KT 26/19 A3005 RMK A01 T02640192  RH  064%=      5-min Rain = 0
KMC1 251613Z 17007KT 26/19 A3005 RMK A01 T02630191  RH  064%=      5-min Rain = 0
KMC1 251614Z 17006KT 26/19 A3005 RMK A01 T02610190  RH  065%=      5-min Rain = 0
KMC1 251615Z 18005KT 26/19 A3005 RMK A01 T02590189  RH  065%=      5-min Rain = 0
KMC1 251616Z 16004KT 26/19 A3005 RMK A01 T02580190  RH  066%=      5-min Rain = 0
KMC1 251617Z 15006KT 26/19 A3005 RMK A01 T02590192  RH  067%=      5-min Rain = 0
KMC1 251618Z 16004KT 26/19 A3005 RMK A01 T02600193  RH  067%=      5-min Rain = 0
KMC1 251619Z 17005KT 26/20 A3005 RMK A01 T02620196  RH  067%=      5-min Rain = 0
KMC1 251620Z 18006KT 27/20 A3005 RMK A01 T02650198  RH  066%=      5-min Rain = 0
KMC1 251621Z 14007G13KT 27/20 A3005 RMK A01 T02680196  RH  065%=      5-min Rain = 0
KMC1 251622Z 16007KT 27/20 A3005 RMK A01 T02680196  RH  065%=      5-min Rain = 0
KMC1 251623Z 16009KT 27/19 A3006 RMK A01 T02680194  RH  064%=      5-min Rain = 0
KMC1 251624Z 15006KT 27/19 A3006 RMK A01 T02670193  RH  064%=      5-min Rain = 0
KMC1 251625Z 15006KT 27/20 A3006 RMK A01 T02660197  RH  066%=      5-min Rain = 0
KMC1 251626Z 14005KT 27/19 A3006 RMK A01 T02670194  RH  064%=      5-min Rain = 0
KMC1 251627Z 15008KT 27/19 A3006 RMK A01 T02660193  RH  064%=      5-min Rain = 0
KMC1 251628Z 15005KT 27/19 A3006 RMK A01 T02650194  RH  065%=      5-min Rain = 0
KMC1 251629Z 16005KT 26/19 A3005 RMK A01 T02640194  RH  065%=      5-min Rain = 0
KMC1 251630Z 16007KT 26/20 A3005 RMK A01 T02640195  RH  066%=      5-min Rain = 0
KMC1 251631Z 18005KT 26/19 A3005 RMK A01 T02640193  RH  065%=      5-min Rain = 0
KMC1 251632Z 18004KT 26/19 A3006 RMK A01 T02630192  RH  065%=      5-min Rain = 0
KMC1 251633Z 18002KT 26/20 A3006 RMK A01 T02630197  RH  067%=      5-min Rain = 0
KMC1 251634Z 16006KT 27/20 A3006 RMK A01 T02660200  RH  067%=      5-min Rain = 0
KMC1 251635Z 14008KT 27/20 A3006 RMK A01 T02680195  RH  064%=      5-min Rain = 0
KMC1 251636Z 14009KT 27/20 A3006 RMK A01 T02680196  RH  065%=      5-min Rain = 0
KMC1 251637Z 14006KT 27/20 A3006 RMK A01 T02680198  RH  066%=      5-min Rain = 0
KMC1 251638Z 14003KT 27/20 A3006 RMK A01 T02690198  RH  065%=      5-min Rain = 0
KMC1 251639Z 16005KT 27/20 A3006 RMK A01 T02710198  RH  064%=      5-min Rain = 0
KMC1 251640Z 14005KT 27/20 A3006 RMK A01 T02720195  RH  063%=      5-min Rain = 0
KMC1 251641Z 15008KT 27/20 A3006 RMK A01 T02720197  RH  064%=      5-min Rain = 0
KMC1 251642Z 16008KT 27/20 A3006 RMK A01 T02710195  RH  063%=      5-min Rain = 0
KMC1 251643Z 17006KT 27/19 A3006 RMK A01 T02700194  RH  063%=      5-min Rain = 0
KMC1 251644Z 16004KT 27/20 A3006 RMK A01 T02680196  RH  065%=      5-min Rain = 0
KMC1 251645Z 17003KT 27/20 A3006 RMK A01 T02690195  RH  064%=      5-min Rain = 0
KMC1 251646Z 20007KT 27/19 A3006 RMK A01 T02690194  RH  064%=      5-min Rain = 0
KMC1 251647Z 20004KT 27/19 A3006 RMK A01 T02680192  RH  063%=      5-min Rain = 0
KMC1 251648Z 20004KT 27/20 A3006 RMK A01 T02660195  RH  065%=      5-min Rain = 0
KMC1 251649Z 20005KT 27/19 A3006 RMK A01 T02660193  RH  064%=      5-min Rain = 0
KMC1 251650Z 19005KT 27/20 A3006 RMK A01 T02670196  RH  065%=      5-min Rain = 0
KMC1 251651Z 19005KT 27/19 A3006 RMK A01 T02680190  RH  063%=      5-min Rain = 0
KMC1 251652Z 17004KT 27/20 A3006 RMK A01 T02670197  RH  065%=      5-min Rain = 0
KMC1 251653Z 14004KT 27/20 A3006 RMK A01 T02690198  RH  065%=      5-min Rain = 0
KMC1 251654Z 17003KT 27/20 A3006 RMK A01 T02700197  RH  064%=      5-min Rain = 0
KMC1 251655Z 13003KT 27/20 A3006 RMK A01 T02710197  RH  064%=      5-min Rain = 0
KMC1 251656Z 14005KT 27/20 A3006 RMK A01 T02720198  RH  064%=      5-min Rain = 0
KMC1 251657Z 19006KT 27/20 A3006 RMK A01 T02740201  RH  065%=      5-min Rain = 0
KMC1 251658Z 21006KT 28/20 A3006 RMK A01 T02750196  RH  062%=      5-min Rain = 0
KMC1 251659Z 18004KT 28/20 A3006 RMK A01 T02750198  RH  063%=      5-min Rain = 0
KMC1 251700Z 18006KT 28/19 A3006 RMK A01 T02750194  RH  061%=      5-min Rain = 0
KMC1 251701Z 18006KT 28/20 A3006 RMK A01 T02750196  RH  062%=      5-min Rain = 0
KMC1 251702Z 18009KT 27/19 A3006 RMK A01 T02740193  RH  061%=      5-min Rain = 0
KMC1 251703Z 18006KT 27/19 A3006 RMK A01 T02730192  RH  061%=      5-min Rain = 0
KMC1 251704Z 17007KT 27/20 A3006 RMK A01 T02710197  RH  064%=      5-min Rain = 0
KMC1 251705Z 16007KT 27/20 A3006 RMK A01 T02720196  RH  063%=      5-min Rain = 0
KMC1 251706Z 16006KT 27/20 A3006 RMK A01 T02730196  RH  063%=      5-min Rain = 0
KMC1 251707Z 16007KT 27/20 A3006 RMK A01 T02740199  RH  064%=      5-min Rain = 0
KMC1 251708Z 16006KT 28/20 A3006 RMK A01 T02760198  RH  063%=      5-min Rain = 0
KMC1 251709Z 15006KT 28/20 A3006 RMK A01 T02760196  RH  061%=      5-min Rain = 0
KMC1 251710Z 15005KT 28/19 A3006 RMK A01 T02760193  RH  061%=      5-min Rain = 0
KMC1 251711Z 16004KT 28/20 A3006 RMK A01 T02750199  RH  063%=      5-min Rain = 0
KMC1 251712Z 16006KT 28/20 A3006 RMK A01 T02770202  RH  064%=      5-min Rain = 0
KMC1 251713Z 17007KT 28/20 A3006 RMK A01 T02790199  RH  062%=      5-min Rain = 0
KMC1 251714Z 16007KT 28/20 A3006 RMK A01 T02800199  RH  061%=      5-min Rain = 0
KMC1 251715Z 15005KT 28/20 A3006 RMK A01 T02790199  RH  062%=      5-min Rain = 0
KMC1 251716Z 15007KT 28/19 A3006 RMK A01 T02790194  RH  060%=      5-min Rain = 0
KMC1 251717Z 17004KT 28/19 A3006 RMK A01 T02780194  RH  060%=      5-min Rain = 0
KMC1 251718Z 18004G9KT 28/20 A3006 RMK A01 T02780197  RH  061%=      5-min Rain = 0
KMC1 251719Z 18005KT 28/20 A3006 RMK A01 T02790197  RH  061%=      5-min Rain = 0
KMC1 251720Z 18007KT 28/20 A3006 RMK A01 T02810196  RH  060%=      5-min Rain = 0
KMC1 251721Z 18005KT 28/19 A3006 RMK A01 T02810194  RH  059%=      5-min Rain = 0
KMC1 251722Z 18003G10KT 28/20 A3006 RMK A01 T02800199  RH  061%=      5-min Rain = 0
KMC1 251723Z 19007KT 28/20 A3006 RMK A01 T02800196  RH  060%=      5-min Rain = 0
KMC1 251724Z 17007KT 28/19 A3006 RMK A01 T02800193  RH  059%=      5-min Rain = 0
KMC1 251725Z 18008KT 28/19 A3006 RMK A01 T02770193  RH  060%=      5-min Rain = 0
KMC1 251726Z 17008KT 28/19 A3006 RMK A01 T02750190  RH  060%=      5-min Rain = 0
KMC1 251727Z 15005KT 27/20 A3006 RMK A01 T02730197  RH  063%=      5-min Rain = 0
KMC1 251728Z 16005KT 28/20 A3006 RMK A01 T02760200  RH  063%=      5-min Rain = 0
KMC1 251729Z 15007KT 28/20 A3006 RMK A01 T02800200  RH  062%=      5-min Rain = 0
KMC1 251730Z 13006KT 28/20 A3006 RMK A01 T02810197  RH  060%=      5-min Rain = 0
KMC1 251731Z 15006KT 28/20 A3006 RMK A01 T02810198  RH  060%=      5-min Rain = 0
KMC1 251732Z 15007KT 28/20 A3006 RMK A01 T02820198  RH  061%=      5-min Rain = 0
KMC1 251733Z 15007KT 28/20 A3006 RMK A01 T02820200  RH  061%=      5-min Rain = 0
KMC1 251734Z 14006KT 28/20 A3005 RMK A01 T02830197  RH  059%=      5-min Rain = 0
KMC1 251735Z 12004KT 28/20 A3005 RMK A01 T02830195  RH  059%=      5-min Rain = 0
KMC1 251736Z 14004KT 28/20 A3005 RMK A01 T02810197  RH  060%=      5-min Rain = 0
KMC1 251737Z 14006KT 28/20 A3005 RMK A01 T02810197  RH  060%=      5-min Rain = 0
KMC1 251738Z 15004KT 28/19 A3005 RMK A01 T02800190  RH  058%=      5-min Rain = 0
KMC1 251739Z 17004KT 28/20 A3005 RMK A01 T02790196  RH  061%=      5-min Rain = 0
KMC1 251740Z 19003KT 28/19 A3005 RMK A01 T02790194  RH  060%=      5-min Rain = 0
KMC1 251741Z 20003KT 28/20 A3005 RMK A01 T02790195  RH  060%=      5-min Rain = 0
KMC1 251742Z 19007KT 28/20 A3005 RMK A01 T02800196  RH  061%=      5-min Rain = 0
KMC1 251743Z 19006KT 28/20 A3005 RMK A01 T02790195  RH  060%=      5-min Rain = 0
KMC1 251744Z 20005KT 28/20 A3005 RMK A01 T02780195  RH  061%=      5-min Rain = 0
KMC1 251745Z 18004KT 28/20 A3005 RMK A01 T02760197  RH  062%=      5-min Rain = 0
KMC1 251746Z 17003KT 28/19 A3005 RMK A01 T02760193  RH  061%=      5-min Rain = 0
KMC1 251747Z 17003KT 28/20 A3005 RMK A01 T02760195  RH  061%=      5-min Rain = 0
KMC1 251748Z 17003KT 28/20 A3005 RMK A01 T02760195  RH  061%=      5-min Rain = 0
KMC1 251749Z 18006KT 28/20 A3005 RMK A01 T02770195  RH  061%=      5-min Rain = 0
KMC1 251750Z 17008KT 28/20 A3005 RMK A01 T02790195  RH  060%=      5-min Rain = 0
KMC1 251751Z 15005KT 28/19 A3005 RMK A01 T02800194  RH  059%=      5-min Rain = 0
KMC1 251752Z 16006KT 28/20 A3005 RMK A01 T02820202  RH  062%=      5-min Rain = 0
KMC1 251753Z 14005KT 29/20 A3005 RMK A01 T02850196  RH  059%=      5-min Rain = 0
KMC1 251754Z 17005KT 29/20 A3005 RMK A01 T02860200  RH  060%=      5-min Rain = 0
KMC1 251755Z 16006KT 29/20 A3005 RMK A01 T02870198  RH  059%=      5-min Rain = 0
KMC1 251756Z 17006KT 29/20 A3005 RMK A01 T02880196  RH  057%=      5-min Rain = 0
KMC1 251757Z 17005KT 29/20 A3005 RMK A01 T02870195  RH  058%=      5-min Rain = 0
KMC1 251758Z 18006KT 29/19 A3005 RMK A01 T02870194  RH  057%=      5-min Rain = 0
KMC1 251759Z 20006KT 29/19 A3005 RMK A01 T02860194  RH  058%=      5-min Rain = 0
KMC1 251800Z 21005KT 29/19 A3005 RMK A01 T02850192  RH  057%=      5-min Rain = 0
KMC1 251801Z 22003KT 28/20 A3004 RMK A01 T02840197  RH  059%=      5-min Rain = 0
KMC1 251802Z 16006KT 28/20 A3005 RMK A01 T02840195  RH  058%=      5-min Rain = 0
KMC1 251803Z 16007KT 29/20 A3005 RMK A01 T02850196  RH  058%=      5-min Rain = 0
KMC1 251804Z 18007KT 29/19 A3005 RMK A01 T02860194  RH  057%=      5-min Rain = 0
KMC1 251805Z 17007KT 29/19 A3005 RMK A01 T02860192  RH  057%=      5-min Rain = 0
KMC1 251806Z 18005KT 29/20 A3005 RMK A01 T02860197  RH  059%=      5-min Rain = 0
KMC1 251807Z 16005KT 29/20 A3004 RMK A01 T02870198  RH  059%=      5-min Rain = 0
KMC1 251808Z 16004KT 29/19 A3004 RMK A01 T02870190  RH  056%=      5-min Rain = 0
KMC1 251809Z 15004KT 29/20 A3005 RMK A01 T02860199  RH  059%=      5-min Rain = 0
KMC1 251810Z 15005KT 29/20 A3005 RMK A01 T02870196  RH  058%=      5-min Rain = 0
KMC1 251811Z 14008KT 29/19 A3005 RMK A01 T02890192  RH  056%=      5-min Rain = 0
KMC1 251812Z 13008KT 29/20 A3005 RMK A01 T02880195  RH  057%=      5-min Rain = 0
KMC1 251813Z 16005KT 29/20 A3005 RMK A01 T02890198  RH  058%=      5-min Rain = 0
KMC1 251814Z 16007KT 29/20 A3005 RMK A01 T02910201  RH  058%=      5-min Rain = 0
KMC1 251815Z 14005KT 29/19 A3005 RMK A01 T02910193  RH  055%=      5-min Rain = 0
KMC1 251816Z 16007KT 29/20 A3005 RMK A01 T02890195  RH  057%=      5-min Rain = 0
KMC1 251817Z 17009KT 29/19 A3005 RMK A01 T02890193  RH  056%=      5-min Rain = 0
KMC1 251818Z 18006G11KT 29/19 A3004 RMK A01 T02880193  RH  056%=      5-min Rain = 0
KMC1 251819Z 18007KT 29/19 A3004 RMK A01 T02880189  RH  055%=      5-min Rain = 0
KMC1 251820Z 18005KT 29/20 A3004 RMK A01 T02880198  RH  058%=      5-min Rain = 0
KMC1 251821Z 14004KT 29/20 A3004 RMK A01 T02900196  RH  057%=      5-min Rain = 0
KMC1 251822Z 13004KT 29/19 A3004 RMK A01 T02920190  RH  054%=      5-min Rain = 0
KMC1 251823Z 13003KT 29/19 A3004 RMK A01 T02910189  RH  054%=      5-min Rain = 0
KMC1 251824Z 21007KT 29/19 A3004 RMK A01 T02900191  RH  055%=      5-min Rain = 0
KMC1 251825Z 22006G11KT 29/19 A3004 RMK A01 T02900191  RH  055%=      5-min Rain = 0
KMC1 251826Z 22009KT 29/19 A3004 RMK A01 T02900189  RH  055%=      5-min Rain = 0
KMC1 251827Z 18007KT 29/19 A3004 RMK A01 T02880186  RH  054%=      5-min Rain = 0
KMC1 251828Z 17005KT 29/20 A3004 RMK A01 T02860195  RH  058%=      5-min Rain = 0
KMC1 251829Z 18006KT 29/19 A3004 RMK A01 T02890191  RH  056%=      5-min Rain = 0
KMC1 251830Z 18007KT 29/19 A3004 RMK A01 T02900191  RH  055%=      5-min Rain = 0
KMC1 251831Z 17005KT 29/20 A3004 RMK A01 T02900196  RH  057%=      5-min Rain = 0
KMC1 251832Z 16009KT 29/19 A3004 RMK A01 T02910192  RH  055%=      5-min Rain = 0
KMC1 251833Z 16009KT 29/19 A3004 RMK A01 T02910194  RH  056%=      5-min Rain = 0
KMC1 251834Z 19007KT 29/19 A3004 RMK A01 T02900192  RH  055%=      5-min Rain = 0
KMC1 251835Z 17006KT 29/19 A3004 RMK A01 T02910192  RH  055%=      5-min Rain = 0
KMC1 251836Z 19003KT 29/19 A3004 RMK A01 T02900191  RH  055%=      5-min Rain = 0
KMC1 251837Z 17005KT 29/19 A3004 RMK A01 T02890192  RH  056%=      5-min Rain = 0
KMC1 251838Z 18005KT 29/19 A3004 RMK A01 T02890194  RH  057%=      5-min Rain = 0
KMC1 251839Z 20003KT 29/20 A3004 RMK A01 T02900197  RH  057%=      5-min Rain = 0
KMC1 251840Z 20006KT 29/20 A3004 RMK A01 T02920196  RH  056%=      5-min Rain = 0
KMC1 251841Z 18005KT 29/20 A3004 RMK A01 T02930197  RH  056%=      5-min Rain = 0
KMC1 251842Z 20005KT 30/20 A3004 RMK A01 T02950198  RH  056%=      5-min Rain = 0
KMC1 251843Z 21005KT 30/20 A3004 RMK A01 T02950195  RH  055%=      5-min Rain = 0
KMC1 251844Z 20004KT 29/19 A3004 RMK A01 T02940192  RH  054%=      5-min Rain = 0
KMC1 251845Z 22004KT 29/19 A3004 RMK A01 T02930191  RH  054%=      5-min Rain = 0
KMC1 251846Z 23003KT 29/19 A3004 RMK A01 T02910193  RH  056%=      5-min Rain = 0
KMC1 251847Z 22004KT 29/20 A3003 RMK A01 T02910196  RH  057%=      5-min Rain = 0
KMC1 251848Z 17005KT 29/20 A3003 RMK A01 T02940200  RH  057%=      5-min Rain = 0
KMC1 251849Z 18004KT 30/20 A3003 RMK A01 T02960195  RH  055%=      5-min Rain = 0
KMC1 251850Z 18003KT 30/20 A3003 RMK A01 T02950199  RH  056%=      5-min Rain = 0
KMC1 251851Z 18002KT 30/19 A3003 RMK A01 T02950192  RH  054%=      5-min Rain = 0
KMC1 251852Z 14003KT 30/20 A3003 RMK A01 T02950199  RH  056%=      5-min Rain = 0
KMC1 251853Z 15006KT 30/20 A3003 RMK A01 T02960196  RH  055%=      5-min Rain = 0
KMC1 251854Z 16005KT 30/20 A3003 RMK A01 T02970199  RH  056%=      5-min Rain = 0
KMC1 251855Z 18006KT 30/20 A3003 RMK A01 T02990197  RH  054%=      5-min Rain = 0
KMC1 251856Z 19006KT 30/20 A3003 RMK A01 T02990195  RH  054%=      5-min Rain = 0
KMC1 251857Z 20008KT 30/20 A3003 RMK A01 T02980196  RH  054%=      5-min Rain = 0
KMC1 251858Z 20007KT 30/19 A3003 RMK A01 T02980194  RH  054%=      5-min Rain = 0
KMC1 251859Z 19006KT 30/20 A3003 RMK A01 T02960197  RH  055%=      5-min Rain = 0
KMC1 251900Z 19006KT 30/19 A3003 RMK A01 T02960192  RH  054%=      5-min Rain = 0
KMC1 251901Z 17007KT 30/20 A3003 RMK A01 T02960196  RH  055%=      5-min Rain = 0
KMC1 251902Z 16005KT 30/19 A3003 RMK A01 T02960193  RH  054%=      5-min Rain = 0
KMC1 251903Z 17007KT 30/20 A3003 RMK A01 T02960195  RH  055%=      5-min Rain = 0
KMC1 251904Z 16007KT 30/19 A3003 RMK A01 T02970192  RH  054%=      5-min Rain = 0
KMC1 251905Z 14005G10KT 30/20 A3003 RMK A01 T02960197  RH  055%=      5-min Rain = 0
KMC1 251906Z 18008KT 30/19 A3003 RMK A01 T02970194  RH  054%=      5-min Rain = 0
KMC1 251907Z 19007KT 30/19 A3003 RMK A01 T02970194  RH  054%=      5-min Rain = 0
KMC1 251908Z 20006KT 30/19 A3003 RMK A01 T02970193  RH  054%=      5-min Rain = 0
KMC1 251909Z 20006KT 30/19 A3003 RMK A01 T02960192  RH  054%=      5-min Rain = 0
KMC1 251910Z 17006KT 30/19 A3003 RMK A01 T02960194  RH  054%=      5-min Rain = 0
KMC1 251911Z 15005KT 30/20 A3003 RMK A01 T02970198  RH  055%=      5-min Rain = 0
KMC1 251912Z 17005KT 30/20 A3003 RMK A01 T02970195  RH  054%=      5-min Rain = 0
KMC1 251913Z 17002KT 30/20 A3003 RMK A01 T02980204  RH  057%=      5-min Rain = 0
KMC1 251914Z 18002KT 30/20 A3003 RMK A01 T03010199  RH  055%=      5-min Rain = 0
KMC1 251915Z 18003KT 30/20 A3003 RMK A01 T03030195  RH  053%=      5-min Rain = 0
KMC1 251916Z 17005KT 30/19 A3003 RMK A01 T03030194  RH  052%=      5-min Rain = 0
KMC1 251917Z 18004KT 30/19 A3003 RMK A01 T03020192  RH  052%=      5-min Rain = 0
KMC1 251918Z 22004KT 30/19 A3003 RMK A01 T03000191  RH  052%=      5-min Rain = 0
KMC1 251919Z 21004KT 30/19 A3003 RMK A01 T02980191  RH  053%=      5-min Rain = 0
KMC1 251920Z 20004KT 30/20 A3003 RMK A01 T02980197  RH  055%=      5-min Rain = 0
KMC1 251921Z 16003KT 30/20 A3003 RMK A01 T03000200  RH  055%=      5-min Rain = 0
KMC1 251922Z 16005KT 30/20 A3003 RMK A01 T03020199  RH  054%=      5-min Rain = 0
KMC1 251923Z 15005KT 30/19 A3003 RMK A01 T03040194  RH  052%=      5-min Rain = 0
KMC1 251924Z 11005KT 30/20 A3003 RMK A01 T03040200  RH  054%=      5-min Rain = 0
KMC1 251925Z 11007KT 30/20 A3003 RMK A01 T03040196  RH  052%=      5-min Rain = 0
KMC1 251926Z 09004KT 30/19 A3003 RMK A01 T03030193  RH  052%=      5-min Rain = 0
KMC1 251927Z 14007KT 30/20 A3003 RMK A01 T03020196  RH  053%=      5-min Rain = 0
KMC1 251928Z 15007KT 30/19 A3003 RMK A01 T03020192  RH  052%=      5-min Rain = 0
KMC1 251929Z 16006KT 30/20 A3003 RMK A01 T03030195  RH  053%=      5-min Rain = 0
KMC1 251930Z 15005KT 30/20 A3003 RMK A01 T03040197  RH  053%=      5-min Rain = 0
KMC1 251931Z 14006KT 31/19 A3003 RMK A01 T03050194  RH  051%=      5-min Rain = 0
KMC1 251932Z 12007KT 31/19 A3003 RMK A01 T03060194  RH  051%=      5-min Rain = 0
KMC1 251933Z 11007KT 31/19 A3003 RMK A01 T03050191  RH  051%=      5-min Rain = 0
KMC1 251934Z 15004KT 30/19 A3003 RMK A01 T03040189  RH  050%=      5-min Rain = 0
KMC1 251935Z 15007KT 30/19 A3003 RMK A01 T03040191  RH  051%=      5-min Rain = 0
KMC1 251936Z 14006KT 30/19 A3003 RMK A01 T03040194  RH  052%=      5-min Rain = 0
KMC1 251937Z 15004G9KT 31/20 A3003 RMK A01 T03050195  RH  052%=      5-min Rain = 0
KMC1 251938Z 20007KT 31/19 A3003 RMK A01 T03060191  RH  050%=      5-min Rain = 0
KMC1 251939Z 20006KT 31/19 A3003 RMK A01 T03050190  RH  050%=      5-min Rain = 0
KMC1 251940Z 16003KT 30/20 A3003 RMK A01 T03040197  RH  053%=      5-min Rain = 0
KMC1 251941Z 14005KT 31/19 A3003 RMK A01 T03050194  RH  052%=      5-min Rain = 0
KMC1 251942Z 13005KT 31/20 A3003 RMK A01 T03050196  RH  052%=      5-min Rain = 0
KMC1 251943Z 13006KT 31/19 A3003 RMK A01 T03060192  RH  051%=      5-min Rain = 0
KMC1 251944Z 11005KT 31/19 A3002 RMK A01 T03050190  RH  050%=      5-min Rain = 0
KMC1 251945Z 12004KT 30/18 A3002 RMK A01 T03020183  RH  049%=      5-min Rain = 0
KMC1 251946Z 12005KT 30/19 A3002 RMK A01 T02990186  RH  051%=      5-min Rain = 0
KMC1 251947Z 13006KT 30/19 A3002 RMK A01 T02990188  RH  051%=      5-min Rain = 0
KMC1 251948Z 15008KT 30/19 A3002 RMK A01 T03010194  RH  053%=      5-min Rain = 0
KMC1 251949Z 15007KT 30/19 A3002 RMK A01 T03030187  RH  050%=      5-min Rain = 0
KMC1 251950Z 15005KT 30/19 A3002 RMK A01 T03030194  RH  052%=      5-min Rain = 0
KMC1 251951Z 19003KT 31/20 A3002 RMK A01 T03050196  RH  052%=      5-min Rain = 0
KMC1 251952Z 16003KT 31/19 A3002 RMK A01 T03060191  RH  050%=      5-min Rain = 0
KMC1 251953Z 14004KT 31/20 A3002 RMK A01 T03070195  RH  051%=      5-min Rain = 0
KMC1 251954Z 11006KT 31/19 A3002 RMK A01 T03080194  RH  051%=      5-min Rain = 0
KMC1 251955Z 12007KT 31/19 A3002 RMK A01 T03080193  RH  050%=      5-min Rain = 0
KMC1 251956Z 12008KT 31/19 A3002 RMK A01 T03070193  RH  051%=      5-min Rain = 0
KMC1 251957Z 13008KT 31/19 A3002 RMK A01 T03060191  RH  050%=      5-min Rain = 0
KMC1 251958Z 13007KT 31/20 A3002 RMK A01 T03050195  RH  052%=      5-min Rain = 0
KMC1 251959Z 15006KT 31/20 A3002 RMK A01 T03050195  RH  052%=      5-min Rain = 0
KMC1 252000Z 17004KT 31/19 A3002 RMK A01 T03060193  RH  051%=      5-min Rain = 0
KMC1 252001Z 16004KT 31/19 A3002 RMK A01 T03070193  RH  050%=      5-min Rain = 0
KMC1 252002Z 17004KT 31/19 A3002 RMK A01 T03070188  RH  049%=      5-min Rain = 0
KMC1 252003Z 17003KT 31/19 A3002 RMK A01 T03060193  RH  051%=      5-min Rain = 0
KMC1 252004Z 17004KT 31/20 A3002 RMK A01 T03060197  RH  052%=      5-min Rain = 0
KMC1 252005Z 16006KT 31/20 A3002 RMK A01 T03080198  RH  052%=      5-min Rain = 0
KMC1 252006Z 20004KT 31/19 A3002 RMK A01 T03100188  RH  048%=      5-min Rain = 0
KMC1 252007Z 17006KT 31/19 A3002 RMK A01 T03070186  RH  048%=      5-min Rain = 0
KMC1 252008Z 16007KT 31/19 A3001 RMK A01 T03050194  RH  051%=      5-min Rain = 0
KMC1 252009Z 12006KT 31/20 A3001 RMK A01 T03080199  RH  052%=      5-min Rain = 0
KMC1 252010Z 13007KT 31/19 A3001 RMK A01 T03090192  RH  050%=      5-min Rain = 0
KMC1 252011Z 15005KT 31/19 A3002 RMK A01 T03100191  RH  049%=      5-min Rain = 0
KMC1 252012Z 17006KT 31/19 A3001 RMK A01 T03100189  RH  049%=      5-min Rain = 0
KMC1 252013Z 16007G12KT 31/19 A3001 RMK A01 T03100190  RH  049%=      5-min Rain = 0
KMC1 252014Z 15006KT 31/19 A3002 RMK A01 T03100194  RH  050%=      5-min Rain = 0
KMC1 252015Z 16005G10KT 31/19 A3002 RMK A01 T03110189  RH  048%=      5-min Rain = 0
KMC1 252016Z 13007KT 31/19 A3001 RMK A01 T03110187  RH  048%=      5-min Rain = 0
KMC1 252017Z 14006KT 31/19 A3001 RMK A01 T03100194  RH  050%=      5-min Rain = 0
KMC1 252018Z 17006KT 31/19 A3001 RMK A01 T03110193  RH  049%=      5-min Rain = 0
KMC1 252019Z 15004G9KT 31/19 A3001 RMK A01 T03120192  RH  049%=      5-min Rain = 0
KMC1 252020Z 15005KT 31/19 A3001 RMK A01 T03120186  RH  047%=      5-min Rain = 0
KMC1 252021Z 18007KT 31/18 A3001 RMK A01 T03100184  RH  047%=      5-min Rain = 0
KMC1 252022Z 20005KT 31/19 A3001 RMK A01 T03080186  RH  048%=      5-min Rain = 0
KMC1 252023Z 17006KT 31/19 A3001 RMK A01 T03080194  RH  051%=      5-min Rain = 0
KMC1 252024Z 15007KT 31/20 A3001 RMK A01 T03110196  RH  050%=      5-min Rain = 0
KMC1 252025Z 14008KT 31/18 A3001 RMK A01 T03130184  RH  046%=      5-min Rain = 0
KMC1 252026Z 15007KT 31/19 A3001 RMK A01 T03110187  RH  048%=      5-min Rain = 0
KMC1 252027Z 15006KT 31/18 A3001 RMK A01 T03100184  RH  047%=      5-min Rain = 0
KMC1 252028Z 16005KT 31/19 A3001 RMK A01 T03090185  RH  048%=      5-min Rain = 0
KMC1 252029Z 18006KT 31/18 A3001 RMK A01 T03080184  RH  048%=      5-min Rain = 0
KMC1 252030Z 20005KT 31/18 A3001 RMK A01 T03080184  RH  048%=      5-min Rain = 0
KMC1 252031Z 20007KT 31/19 A3001 RMK A01 T03080185  RH  048%=      5-min Rain = 0
KMC1 252032Z 19009KT 31/19 A3001 RMK A01 T03070186  RH  048%=      5-min Rain = 0
KMC1 252033Z 16008KT 31/19 A3001 RMK A01 T03070188  RH  049%=      5-min Rain = 0
KMC1 252034Z 17008KT 31/19 A3001 RMK A01 T03080189  RH  049%=      5-min Rain = 0
KMC1 252035Z 17010KT 31/18 A3001 RMK A01 T03090184  RH  047%=      5-min Rain = 0
KMC1 252036Z 17010KT 31/18 A3001 RMK A01 T03090184  RH  047%=      5-min Rain = 0
KMC1 252037Z 18008KT 31/18 A3001 RMK A01 T03090184  RH  047%=      5-min Rain = 0
KMC1 252038Z 18008KT 31/18 A3001 RMK A01 T03090184  RH  047%=      5-min Rain = 0
KMC1 252039Z 17006KT 31/18 A3001 RMK A01 T03090180  RH  046%=      5-min Rain = 0
KMC1 252040Z 20004KT 31/18 A3001 RMK A01 T03090183  RH  047%=      5-min Rain = 0
KMC1 252041Z 20004KT 31/19 A3001 RMK A01 T03090185  RH  048%=      5-min Rain = 0
KMC1 252042Z 15003KT 31/19 A3001 RMK A01 T03100190  RH  049%=      5-min Rain = 0
KMC1 252043Z 18007KT 31/19 A3001 RMK A01 T03130187  RH  047%=      5-min Rain = 0
KMC1 252044Z 19007KT 31/18 A3001 RMK A01 T03130182  RH  046%=      5-min Rain = 0
KMC1 252045Z 15007KT 31/19 A3001 RMK A01 T03120190  RH  048%=      5-min Rain = 0
KMC1 252046Z 15005KT 31/19 A3001 RMK A01 T03130191  RH  048%=      5-min Rain = 0
KMC1 252047Z 13005KT 31/19 A3001 RMK A01 T03140191  RH  048%=      5-min Rain = 0
KMC1 252048Z 13006KT 31/19 A3001 RMK A01 T03140187  RH  047%=      5-min Rain = 0
KMC1 252049Z 12007KT 31/19 A3001 RMK A01 T03140191  RH  048%=      5-min Rain = 0
KMC1 252050Z 11007KT 31/19 A3001 RMK A01 T03140188  RH  047%=      5-min Rain = 0
KMC1 252051Z 13005KT 31/19 A3001 RMK A01 T03130189  RH  048%=      5-min Rain = 0
KMC1 252052Z 16005KT 31/19 A3001 RMK A01 T03130186  RH  047%=      5-min Rain = 0
KMC1 252053Z 17006KT 31/18 A3001 RMK A01 T03120180  RH  045%=      5-min Rain = 0
KMC1 252054Z 13008KT 31/19 A3001 RMK A01 T03120186  RH  047%=      5-min Rain = 0
KMC1 252055Z 14006KT 31/18 A3001 RMK A01 T03110182  RH  046%=      5-min Rain = 0
KMC1 252056Z 18006KT 31/19 A3001 RMK A01 T03120188  RH  048%=      5-min Rain = 0
KMC1 252057Z 18006KT 31/19 A3001 RMK A01 T03140188  RH  047%=      5-min Rain = 0
KMC1 252058Z 19008KT 32/18 A3001 RMK A01 T03150184  RH  046%=      5-min Rain = 0
KMC1 252059Z 19006KT 32/18 A30 RMK A01 T03150184  RH  046%=      5-min Rain = 0
KMC1 252100Z 17006KT 31/19 A30 RMK A01 T03140185  RH  046%=      5-min Rain = 0
KMC1 252101Z 14004G9KT 31/18 A30 RMK A01 T03140182  RH  045%=      5-min Rain = 0
KMC1 252102Z 15006KT 31/18 A3001 RMK A01 T03120182  RH  046%=      5-min Rain = 0
KMC1 252103Z 14008KT 31/19 A3001 RMK A01 T03120188  RH  048%=      5-min Rain = 0
KMC1 252104Z 15009KT 31/19 A3001 RMK A01 T03120185  RH  047%=      5-min Rain = 0
KMC1 252105Z 16008KT 31/19 A3001 RMK A01 T03130187  RH  047%=      5-min Rain = 0
KMC1 252106Z 18007KT 31/19 A30 RMK A01 T03130185  RH  047%=      5-min Rain = 0
KMC1 252107Z 17003KT 31/19 A30 RMK A01 T03140187  RH  047%=      5-min Rain = 0
KMC1 252108Z 14002KT 31/19 A30 RMK A01 T03140192  RH  048%=      5-min Rain = 0
KMC1 252109Z 08002KT 32/19 A30 RMK A01 T03160191  RH  047%=      5-min Rain = 0
KMC1 252110Z 11003KT 32/19 A30 RMK A01 T03170187  RH  046%=      5-min Rain = 0
KMC1 252111Z 11004KT 32/19 A30 RMK A01 T03170190  RH  047%=      5-min Rain = 0
KMC1 252112Z 11004KT 32/19 A30 RMK A01 T03170194  RH  048%=      5-min Rain = 0
KMC1 252113Z 06002KT 32/19 A30 RMK A01 T03170192  RH  048%=      5-min Rain = 0
KMC1 252114Z 14006G11KT 32/19 A30 RMK A01 T03180194  RH  048%=      5-min Rain = 0
KMC1 252115Z 14006KT 32/19 A30 RMK A01 T03190193  RH  047%=      5-min Rain = 0
KMC1 252116Z 13010KT 32/19 A30 RMK A01 T03190191  RH  047%=      5-min Rain = 0
KMC1 252117Z 13009KT 32/19 A30 RMK A01 T03170185  RH  045%=      5-min Rain = 0
KMC1 252118Z 13006KT 31/18 A30 RMK A01 T03140182  RH  046%=      5-min Rain = 0
KMC1 252119Z 12006KT 31/18 A30 RMK A01 T03110184  RH  047%=      5-min Rain = 0
KMC1 252120Z 13004KT 31/19 A30 RMK A01 T03100188  RH  048%=      5-min Rain = 0
KMC1 252121Z 13006KT 31/19 A30 RMK A01 T03130190  RH  048%=      5-min Rain = 0
KMC1 252122Z 13006KT 31/19 A30 RMK A01 T03140187  RH  047%=      5-min Rain = 0
KMC1 252123Z 14005KT 32/19 A30 RMK A01 T03150188  RH  047%=      5-min Rain = 0
KMC1 252124Z 13006KT 32/19 A30 RMK A01 T03150185  RH  046%=      5-min Rain = 0
KMC1 252125Z 13006KT 31/19 A30 RMK A01 T03140191  RH  048%=      5-min Rain = 0
KMC1 252126Z 15005KT 31/19 A30 RMK A01 T03140188  RH  047%=      5-min Rain = 0
KMC1 252127Z 15006KT 31/19 A30 RMK A01 T03140188  RH  047%=      5-min Rain = 0
KMC1 252128Z 16007KT 32/19 A30 RMK A01 T03150185  RH  046%=      5-min Rain = 0
KMC1 252129Z 18004KT 31/18 A30 RMK A01 T03140184  RH  046%=      5-min Rain = 0
KMC1 252130Z 15005KT 31/19 A2999 RMK A01 T03140189  RH  048%=      5-min Rain = 0
KMC1 252131Z 15005KT 32/18 A2999 RMK A01 T03150183  RH  046%=      5-min Rain = 0
KMC1 252132Z 14004KT 31/19 A2999 RMK A01 T03140185  RH  046%=      5-min Rain = 0
KMC1 252133Z 16001KT 31/18 A2999 RMK A01 T03140179  RH  045%=      5-min Rain = 0
KMC1 252134Z 13002KT 31/18 A2999 RMK A01 T03140183  RH  046%=      5-min Rain = 0
KMC1 252135Z 12004KT 31/18 A2999 RMK A01 T03140182  RH  045%=      5-min Rain = 0
KMC1 252136Z 13003KT 31/18 A2999 RMK A01 T03130181  RH  045%=      5-min Rain = 0
KMC1 252137Z 09002KT 31/18 A2999 RMK A01 T03110181  RH  046%=      5-min Rain = 0
KMC1 252138Z 17003KT 31/19 A2999 RMK A01 T03110190  RH  049%=      5-min Rain = 0
KMC1 252139Z 16005KT 31/19 A2999 RMK A01 T03120190  RH  048%=      5-min Rain = 0
KMC1 252140Z 14005KT 32/19 A2999 RMK A01 T03160189  RH  047%=      5-min Rain = 0
KMC1 252141Z 14004KT 32/19 A2999 RMK A01 T03170187  RH  046%=      5-min Rain = 0
KMC1 252142Z 13006KT 32/19 A2999 RMK A01 T03170192  RH  047%=      5-min Rain = 0
KMC1 252143Z 13008KT 32/18 A2999 RMK A01 T03180180  RH  044%=      5-min Rain = 0
KMC1 252144Z 12007KT 31/18 A2999 RMK A01 T03140179  RH  045%=      5-min Rain = 0
KMC1 252145Z 11007KT 31/19 A2999 RMK A01 T03120185  RH  047%=      5-min Rain = 0
KMC1 252146Z 09007KT 31/19 A2999 RMK A01 T03120186  RH  047%=      5-min Rain = 0
KMC1 252147Z 10005KT 31/19 A2999 RMK A01 T03120187  RH  047%=      5-min Rain = 0
KMC1 252148Z 10004KT 31/19 A2999 RMK A01 T03140188  RH  047%=      5-min Rain = 0
KMC1 252149Z 10006KT 32/19 A2999 RMK A01 T03150187  RH  047%=      5-min Rain = 0
KMC1 252150Z 12005KT 32/18 A2999 RMK A01 T03170180  RH  044%=      5-min Rain = 0
KMC1 252151Z 09004KT 32/18 A2999 RMK A01 T03160180  RH  044%=      5-min Rain = 0
KMC1 252152Z 10003KT 32/19 A2999 RMK A01 T03170186  RH  046%=      5-min Rain = 0
KMC1 252153Z 11003KT 32/18 A2999 RMK A01 T03180180  RH  044%=      5-min Rain = 0
KMC1 252154Z 16006KT 32/18 A2999 RMK A01 T03190184  RH  045%=      5-min Rain = 0
KMC1 252155Z 18006KT 32/19 A2999 RMK A01 T03200185  RH  045%=      5-min Rain = 0
KMC1 252156Z 17005KT 32/18 A2999 RMK A01 T03190181  RH  044%=      5-min Rain = 0
KMC1 252157Z 15007G12KT 32/18 A2999 RMK A01 T03190184  RH  045%=      5-min Rain = 0
KMC1 252158Z 12007KT 32/19 A2999 RMK A01 T03190191  RH  046%=      5-min Rain = 0
KMC1 252159Z 12009KT 32/18 A2999 RMK A01 T03210184  RH  044%=      5-min Rain = 0
KMC1 252200Z 12009KT 32/18 A2999 RMK A01 T03190180  RH  044%=      5-min Rain = 0
KMC1 252201Z 12008KT 32/18 A2999 RMK A01 T03160180  RH  044%=      5-min Rain = 0
KMC1 252202Z 12008KT 31/18 A2999 RMK A01 T03140180  RH  045%=      5-min Rain = 0
KMC1 252203Z 11007KT 31/18 A2999 RMK A01 T03100180  RH  046%=      5-min Rain = 0
KMC1 252204Z 11008KT 31/18 A2999 RMK A01 T03080182  RH  047%=      5-min Rain = 0
KMC1 252205Z 12008KT 31/18 A2999 RMK A01 T03060180  RH  047%=      5-min Rain = 0
KMC1 252206Z 12006KT 31/18 A2999 RMK A01 T03050180  RH  047%=      5-min Rain = 0
KMC1 252207Z 13006KT 31/18 A2999 RMK A01 T03060180  RH  047%=      5-min Rain = 0
KMC1 252208Z 09004KT 31/18 A2999 RMK A01 T03090184  RH  047%=      5-min Rain = 0
KMC1 252209Z 10006KT 31/18 A2999 RMK A01 T03120181  RH  045%=      5-min Rain = 0
KMC1 252210Z 11005KT 31/17 A2999 RMK A01 T03140172  RH  043%=      5-min Rain = 0
KMC1 252211Z 13005KT 31/18 A2998 RMK A01 T03140176  RH  044%=      5-min Rain = 0
KMC1 252212Z 12004KT 32/18 A2998 RMK A01 T03150176  RH  044%=      5-min Rain = 0
KMC1 252213Z 12004KT 32/17 A2998 RMK A01 T03160173  RH  042%=      5-min Rain = 0
KMC1 252214Z 10006KT 32/18 A2998 RMK A01 T03170182  RH  045%=      5-min Rain = 0
KMC1 252215Z 10007KT 32/18 A2998 RMK A01 T03180177  RH  043%=      5-min Rain = 0
KMC1 252216Z 10008KT 32/18 A2998 RMK A01 T03180182  RH  044%=      5-min Rain = 0
KMC1 252217Z 10006KT 32/18 A2998 RMK A01 T03190181  RH  044%=      5-min Rain = 0
KMC1 252218Z 11007KT 32/18 A2998 RMK A01 T03190178  RH  043%=      5-min Rain = 0
KMC1 252219Z 13008KT 32/18 A2998 RMK A01 T03190177  RH  043%=      5-min Rain = 0
KMC1 252220Z 14007KT 32/18 A2998 RMK A01 T03190180  RH  044%=      5-min Rain = 0
KMC1 252221Z 15005KT 32/18 A2999 RMK A01 T03180182  RH  044%=      5-min Rain = 0
KMC1 252222Z 16005KT 32/18 A2999 RMK A01 T03190181  RH  044%=      5-min Rain = 0
KMC1 252223Z 15006KT 32/18 A2999 RMK A01 T03200180  RH  044%=      5-min Rain = 0
KMC1 252224Z 17005KT 32/18 A2999 RMK A01 T03200176  RH  042%=      5-min Rain = 0
KMC1 252225Z 16004KT 32/18 A2998 RMK A01 T03200176  RH  042%=      5-min Rain = 0
KMC1 252226Z 13005KT 32/18 A2998 RMK A01 T03200175  RH  042%=      5-min Rain = 0
KMC1 252227Z 13004KT 32/18 A2998 RMK A01 T03190177  RH  043%=      5-min Rain = 0
KMC1 252228Z 12003KT 32/17 A2998 RMK A01 T03190174  RH  042%=      5-min Rain = 0
KMC1 252229Z 11002KT 32/17 A2998 RMK A01 T03190174  RH  042%=      5-min Rain = 0
KMC1 252230Z 17003KT 32/18 A2998 RMK A01 T03190179  RH  043%=      5-min Rain = 0
KMC1 252231Z 13004KT 32/18 A2998 RMK A01 T03200179  RH  043%=      5-min Rain = 0
KMC1 252232Z 13004KT 32/18 A2998 RMK A01 T03210179  RH  043%=      5-min Rain = 0
KMC1 252233Z 13009KT 32/18 A2998 RMK A01 T03210179  RH  043%=      5-min Rain = 0
KMC1 252234Z 13005KT 32/17 A2998 RMK A01 T03190173  RH  042%=      5-min Rain = 0
KMC1 252235Z 11006KT 32/18 A2998 RMK A01 T03180176  RH  043%=      5-min Rain = 0
KMC1 252236Z 11006KT 32/18 A2998 RMK A01 T03180180  RH  044%=      5-min Rain = 0
KMC1 252237Z 10008KT 32/18 A2998 RMK A01 T03180180  RH  044%=      5-min Rain = 0
KMC1 252238Z 10009KT 32/18 A2998 RMK A01 T03180177  RH  043%=      5-min Rain = 0
KMC1 252239Z 10006KT 32/19 A2998 RMK A01 T03180185  RH  045%=      5-min Rain = 0
KMC1 252240Z 10004KT 32/18 A2998 RMK A01 T03190177  RH  043%=      5-min Rain = 0
KMC1 252241Z 13005KT 32/18 A2998 RMK A01 T03200179  RH  043%=      5-min Rain = 0
KMC1 252242Z 14004KT 32/18 A2998 RMK A01 T03200180  RH  043%=      5-min Rain = 0
KMC1 252243Z 14005KT 32/18 A2998 RMK A01 T03200179  RH  043%=      5-min Rain = 0
KMC1 252244Z 13004KT 32/18 A2998 RMK A01 T03200179  RH  043%=      5-min Rain = 0
KMC1 252245Z 10003KT 32/18 A2998 RMK A01 T03210177  RH  042%=      5-min Rain = 0
KMC1 252246Z 12004KT 32/18 A2998 RMK A01 T03210179  RH  043%=      5-min Rain = 0
KMC1 252247Z 09005KT 32/18 A2998 RMK A01 T03220184  RH  044%=      5-min Rain = 0
KMC1 252248Z 10006KT 32/19 A2998 RMK A01 T03220188  RH  045%=      5-min Rain = 0
KMC1 252249Z 13008KT 32/19 A2998 RMK A01 T03230186  RH  044%=      5-min Rain = 0
KMC1 252250Z 14007KT 32/19 A2998 RMK A01 T03230186  RH  044%=      5-min Rain = 0
KMC1 252251Z 15006KT 32/18 A2998 RMK A01 T03230183  RH  043%=      5-min Rain = 0
KMC1 252252Z 16007KT 32/18 A2998 RMK A01 T03220179  RH  043%=      5-min Rain = 0
KMC1 252253Z 16006KT 32/18 A2998 RMK A01 T03200182  RH  044%=      5-min Rain = 0
KMC1 252254Z 14004KT 32/18 A2998 RMK A01 T03190182  RH  044%=      5-min Rain = 0
KMC1 252255Z 14005KT 32/18 A2998 RMK A01 T03200184  RH  045%=      5-min Rain = 0
KMC1 252256Z 16005KT 32/18 A2998 RMK A01 T03200180  RH  043%=      5-min Rain = 0
KMC1 252257Z 17003KT 32/19 A2998 RMK A01 T03210185  RH  044%=      5-min Rain = 0
KMC1 252258Z 18004KT 32/18 A2998 RMK A01 T03230175  RH  041%=      5-min Rain = 0
KMC1 252259Z 19002KT 32/18 A2998 RMK A01 T03220176  RH  042%=      5-min Rain = 0
KMC1 252300Z 12002KT 32/18 A2998 RMK A01 T03220184  RH  044%=      5-min Rain = 0
KMC1 252301Z 16003KT 32/18 A2998 RMK A01 T03240184  RH  044%=      5-min Rain = 0
KMC1 252302Z 15005KT 33/18 A2998 RMK A01 T03250181  RH  043%=      5-min Rain = 0
KMC1 252303Z 15005KT 32/18 A2998 RMK A01 T03240178  RH  042%=      5-min Rain = 0
KMC1 252304Z 13007KT 32/18 A2998 RMK A01 T03220182  RH  043%=      5-min Rain = 0
KMC1 252305Z 14006KT 32/19 A2998 RMK A01 T03220185  RH  044%=      5-min Rain = 0
KMC1 252306Z 10006KT 32/19 A2998 RMK A01 T03220189  RH  045%=      5-min Rain = 0
KMC1 252307Z 10008KT 32/19 A2998 RMK A01 T03230192  RH  046%=      5-min Rain = 0
KMC1 252308Z 10008KT 32/19 A2998 RMK A01 T03220187  RH  045%=      5-min Rain = 0
KMC1 252309Z 11006KT 32/19 A2998 RMK A01 T03170187  RH  046%=      5-min Rain = 0
KMC1 252310Z 11005KT 31/19 A2998 RMK A01 T03140188  RH  047%=      5-min Rain = 0
KMC1 252311Z 12004KT 31/19 A2998 RMK A01 T03110189  RH  048%=      5-min Rain = 0
KMC1 252312Z 11005KT 31/19 A2998 RMK A01 T03090189  RH  049%=      5-min Rain = 0
KMC1 252313Z 12006KT 31/19 A2998 RMK A01 T03090186  RH  048%=      5-min Rain = 0
KMC1 252314Z 11005KT 31/19 A2998 RMK A01 T03080192  RH  050%=      5-min Rain = 0
KMC1 252315Z 11006KT 31/19 A2998 RMK A01 T03080189  RH  049%=      5-min Rain = 0
KMC1 252316Z 11005KT 31/19 A2998 RMK A01 T03080191  RH  050%=      5-min Rain = 0
KMC1 252317Z 12006KT 31/19 A2998 RMK A01 T03090188  RH  049%=      5-min Rain = 0
KMC1 252318Z 13006KT 31/19 A2998 RMK A01 T03090188  RH  049%=      5-min Rain = 0
KMC1 252319Z 12008KT 31/19 A2998 RMK A01 T03070185  RH  048%=      5-min Rain = 0
KMC1 252320Z 12007KT 31/19 A2998 RMK A01 T03050185  RH  049%=      5-min Rain = 0
KMC1 252321Z 12007KT 30/19 A2998 RMK A01 T03040187  RH  050%=      5-min Rain = 0
KMC1 252322Z 13011KT 30/18 A2998 RMK A01 T03020184  RH  049%=      5-min Rain = 0
KMC1 252323Z 12009KT 30/19 A2998 RMK A01 T03010185  RH  050%=      5-min Rain = 0
KMC1 252324Z 13010KT 30/18 A2998 RMK A01 T03000184  RH  050%=      5-min Rain = 0
KMC1 252325Z 13010KT 30/19 A2998 RMK A01 T03000185  RH  050%=      5-min Rain = 0
KMC1 252326Z 13010KT 30/18 A2998 RMK A01 T02990183  RH  050%=      5-min Rain = 0
KMC1 252327Z 13009KT 30/18 A2998 RMK A01 T02990182  RH  050%=      5-min Rain = 0
KMC1 252328Z 13007KT 30/18 A2998 RMK A01 T02990184  RH  050%=      5-min Rain = 0
KMC1 252329Z 12007KT 30/19 A2998 RMK A01 T02990186  RH  051%=      5-min Rain = 0
KMC1 252330Z 13010KT 30/19 A2998 RMK A01 T03020186  RH  050%=      5-min Rain = 0
KMC1 252331Z 12009KT 30/18 A2998 RMK A01 T03040184  RH  049%=      5-min Rain = 0
KMC1 252332Z 12008KT 31/19 A2998 RMK A01 T03060187  RH  049%=      5-min Rain = 0
KMC1 252333Z 11008KT 31/19 A2998 RMK A01 T03080188  RH  049%=      5-min Rain = 0
KMC1 252334Z 12010KT 31/19 A2998 RMK A01 T03090186  RH  048%=      5-min Rain = 0
KMC1 252335Z 13008KT 31/19 A2998 RMK A01 T03090188  RH  048%=      5-min Rain = 0
KMC1 252336Z 12007KT 31/19 A2998 RMK A01 T03090188  RH  048%=      5-min Rain = 0
KMC1 252337Z 14007KT 31/19 A2998 RMK A01 T03100190  RH  049%=      5-min Rain = 0
KMC1 252338Z 14008KT 31/19 A2998 RMK A01 T03110190  RH  049%=      5-min Rain = 0
KMC1 252339Z 14010KT 31/19 A2998 RMK A01 T03110188  RH  048%=      5-min Rain = 0
KMC1 252340Z 14008KT 31/19 A2998 RMK A01 T03110188  RH  048%=      5-min Rain = 0
KMC1 252341Z 13010KT 31/19 A2998 RMK A01 T03120188  RH  048%=      5-min Rain = 0
KMC1 252342Z 14009KT 31/19 A2998 RMK A01 T03110185  RH  047%=      5-min Rain = 0
KMC1 252343Z 13008KT 31/19 A2998 RMK A01 T03100186  RH  048%=      5-min Rain = 0
KMC1 252344Z 14007G12KT 31/19 A2998 RMK A01 T03080187  RH  048%=      5-min Rain = 0
KMC1 252345Z 13009KT 31/19 A2998 RMK A01 T03070188  RH  049%=      5-min Rain = 0
KMC1 252346Z 14008KT 31/19 A2998 RMK A01 T03070190  RH  050%=      5-min Rain = 0
KMC1 252347Z 13006KT 31/19 A2998 RMK A01 T03070190  RH  050%=      5-min Rain = 0
KMC1 252348Z 13007KT 31/19 A2998 RMK A01 T03060192  RH  050%=      5-min Rain = 0
KMC1 252349Z 14005KT 31/19 A2998 RMK A01 T03070193  RH  051%=      5-min Rain = 0
KMC1 252350Z 14006KT 31/20 A2998 RMK A01 T03070196  RH  051%=      5-min Rain = 0
KMC1 252351Z 15009KT 31/19 A2998 RMK A01 T03080194  RH  050%=      5-min Rain = 0
KMC1 252352Z 14008G14KT 31/19 A2998 RMK A01 T03080194  RH  051%=      5-min Rain = 0
KMC1 252353Z 14010KT 31/19 A2997 RMK A01 T03080191  RH  050%=      5-min Rain = 0
KMC1 252354Z 16010KT 31/19 A2997 RMK A01 T03070192  RH  050%=      5-min Rain = 0
KMC1 252355Z 14010KT 31/19 A2997 RMK A01 T03070190  RH  050%=      5-min Rain = 0
KMC1 252356Z 15010KT 31/19 A2997 RMK A01 T03050189  RH  050%=      5-min Rain = 0
KMC1 252357Z 15008KT 30/19 A2997 RMK A01 T03040190  RH  050%=      5-min Rain = 0
KMC1 252358Z 16010KT 30/19 A2997 RMK A01 T03040188  RH  050%=      5-min Rain = 0
KMC1 252359Z 15009KT 30/19 A2997 RMK A01 T03030191  RH  051%=      5-min Rain = 0
KMC1 260000Z 15009KT 30/19 A2997 RMK A01 T03030190  RH  051%=      5-min Rain = 0
KMC1 260001Z 15008KT 30/19 A2997 RMK A01 T03030190  RH  051%=      5-min Rain = 0
KMC1 260002Z 15006KT 30/19 A2997 RMK A01 T03030191  RH  051%=      5-min Rain = 0
KMC1 260003Z 16006KT 30/19 A2997 RMK A01 T03030193  RH  052%=      5-min Rain = 0
KMC1 260004Z 14007KT 30/19 A2997 RMK A01 T03030191  RH  051%=      5-min Rain = 0
KMC1 260005Z 15008G13KT 30/19 A2997 RMK A01 T03030193  RH  052%=      5-min Rain = 0
KMC1 260006Z 15011KT 30/19 A2997 RMK A01 T03030190  RH  051%=      5-min Rain = 0
KMC1 260007Z 15009KT 30/19 A2997 RMK A01 T03030189  RH  050%=      5-min Rain = 0
KMC1 260008Z 15009G15KT 30/19 A2997 RMK A01 T03030189  RH  050%=      5-min Rain = 0
KMC1 260009Z 14007KT 30/19 A2997 RMK A01 T03030190  RH  051%=      5-min Rain = 0
KMC1 260010Z 14011KT 30/19 A2997 RMK A01 T03030189  RH  051%=      5-min Rain = 0
KMC1 260011Z 15007KT 30/19 A2998 RMK A01 T03030191  RH  051%=      5-min Rain = 0
KMC1 260012Z 14010KT 30/19 A2997 RMK A01 T03030190  RH  051%=      5-min Rain = 0
KMC1 260013Z 15008KT 30/19 A2997 RMK A01 T03030189  RH  051%=      5-min Rain = 0
KMC1 260014Z 15008KT 30/19 A2997 RMK A01 T03020190  RH  051%=      5-min Rain = 0
KMC1 260015Z 13008KT 30/19 A2997 RMK A01 T03030190  RH  051%=      5-min Rain = 0
KMC1 260016Z 14006KT 30/19 A2997 RMK A01 T03020192  RH  052%=      5-min Rain = 0
KMC1 260017Z 15008KT 30/19 A2997 RMK A01 T03020191  RH  051%=      5-min Rain = 0
KMC1 260018Z 15008KT 30/19 A2997 RMK A01 T03020191  RH  051%=      5-min Rain = 0
KMC1 260019Z 15008G15KT 30/19 A2997 RMK A01 T03020191  RH  051%=      5-min Rain = 0
KMC1 260020Z 15011KT 30/19 A2997 RMK A01 T03020187  RH  050%=      5-min Rain = 0
KMC1 260021Z 13009KT 30/19 A2997 RMK A01 T03020190  RH  051%=      5-min Rain = 0
KMC1 260022Z 14006KT 30/19 A2997 RMK A01 T03010191  RH  052%=      5-min Rain = 0
KMC1 260023Z 14007KT 30/19 A2997 RMK A01 T03010191  RH  052%=      5-min Rain = 0
KMC1 260024Z 14007G13KT 30/19 A2997 RMK A01 T03010189  RH  051%=      5-min Rain = 0
KMC1 260025Z 15009G15KT 30/19 A2997 RMK A01 T03010189  RH  051%=      5-min Rain = 0
KMC1 260026Z 15007KT 30/19 A2997 RMK A01 T03000188  RH  051%=      5-min Rain = 0
KMC1 260027Z 14009KT 30/19 A2997 RMK A01 T03000189  RH  051%=      5-min Rain = 0
KMC1 260028Z 13009KT 30/19 A2997 RMK A01 T02990187  RH  051%=      5-min Rain = 0
KMC1 260029Z 13010KT 30/19 A2998 RMK A01 T02990188  RH  051%=      5-min Rain = 0
KMC1 260030Z 14008KT 30/19 A2998 RMK A01 T02980188  RH  052%=      5-min Rain = 0
KMC1 260031Z 13010G15KT 30/19 A2998 RMK A01 T02980188  RH  052%=      5-min Rain = 0
KMC1 260032Z 13008KT 30/19 A2998 RMK A01 T02970187  RH  052%=      5-min Rain = 0
KMC1 260033Z 14008KT 30/19 A2998 RMK A01 T02970189  RH  052%=      5-min Rain = 0
KMC1 260034Z 14010KT 30/19 A2998 RMK A01 T02970186  RH  051%=      5-min Rain = 0
KMC1 260035Z 14007KT 30/19 A2998 RMK A01 T02970185  RH  051%=      5-min Rain = 0
KMC1 260036Z 14007KT 30/19 A2998 RMK A01 T02970187  RH  052%=      5-min Rain = 0
KMC1 260037Z 15006KT 30/19 A2998 RMK A01 T02970188  RH  052%=      5-min Rain = 0
KMC1 260038Z 16008KT 30/19 A2998 RMK A01 T02970187  RH  052%=      5-min Rain = 0
KMC1 260039Z 14005KT 30/19 A2998 RMK A01 T02970186  RH  051%=      5-min Rain = 0
KMC1 260040Z 15006KT 30/19 A2998 RMK A01 T02970188  RH  052%=      5-min Rain = 0
KMC1 260041Z 15006G11KT 30/19 A2998 RMK A01 T02960189  RH  053%=      5-min Rain = 0
KMC1 260042Z 14007KT 30/19 A2998 RMK A01 T02950187  RH  052%=      5-min Rain = 0
KMC1 260043Z 14007KT 29/19 A2998 RMK A01 T02940187  RH  052%=      5-min Rain = 0
KMC1 260044Z 14007KT 29/19 A2998 RMK A01 T02930185  RH  052%=      5-min Rain = 0
KMC1 260045Z 15006G11KT 29/19 A2998 RMK A01 T02930185  RH  052%=      5-min Rain = 0
KMC1 260046Z 15008KT 29/19 A2998 RMK A01 T02930185  RH  052%=      5-min Rain = 0
KMC1 260047Z 15005KT 29/19 A2998 RMK A01 T02930185  RH  052%=      5-min Rain = 0
KMC1 260048Z 14005KT 29/19 A2998 RMK A01 T02920186  RH  053%=      5-min Rain = 0
KMC1 260049Z 14008KT 29/19 A2998 RMK A01 T02910185  RH  053%=      5-min Rain = 0
KMC1 260050Z 14006KT 29/19 A2998 RMK A01 T02910185  RH  053%=      5-min Rain = 0
KMC1 260051Z 15007KT 29/19 A2998 RMK A01 T02900185  RH  053%=      5-min Rain = 0
KMC1 260052Z 15006KT 29/19 A2998 RMK A01 T02910185  RH  053%=      5-min Rain = 0
KMC1 260053Z 15007KT 29/19 A2998 RMK A01 T02910186  RH  053%=      5-min Rain = 0
KMC1 260054Z 15007KT 29/18 A2998 RMK A01 T02900184  RH  053%=      5-min Rain = 0
KMC1 260055Z 14007KT 29/18 A2998 RMK A01 T02910183  RH  052%=      5-min Rain = 0
KMC1 260056Z 15007KT 29/18 A2998 RMK A01 T02900184  RH  053%=      5-min Rain = 0
KMC1 260057Z 15007KT 29/18 A2998 RMK A01 T02900184  RH  053%=      5-min Rain = 0
KMC1 260058Z 14006KT 29/19 A2998 RMK A01 T02900185  RH  053%=      5-min Rain = 0
KMC1 260059Z 15005KT 29/19 A2998 RMK A01 T02890185  RH  053%=      5-min Rain = 0
KMC1 260100Z 15005KT 29/19 A2998 RMK A01 T02890186  RH  054%=      5-min Rain = 0
KMC1 260101Z 15004KT 29/19 A2998 RMK A01 T02890188  RH  054%=      5-min Rain = 0
KMC1 260102Z 15005KT 29/19 A2999 RMK A01 T02890188  RH  054%=      5-min Rain = 0
KMC1 260103Z 15005KT 29/19 A2999 RMK A01 T02890188  RH  054%=      5-min Rain = 0
KMC1 260104Z 15006KT 29/19 A2999 RMK A01 T02880188  RH  055%=      5-min Rain = 0
KMC1 260105Z 15004KT 29/19 A2999 RMK A01 T02880187  RH  054%=      5-min Rain = 0
KMC1 260106Z 14003KT 29/19 A2999 RMK A01 T02870188  RH  055%=      5-min Rain = 0
KMC1 260107Z 15004G9KT 29/19 A2999 RMK A01 T02880189  RH  055%=      5-min Rain = 0
KMC1 260108Z 15005KT 29/19 A2999 RMK A01 T02870186  RH  055%=      5-min Rain = 0
KMC1 260109Z 15004KT 29/19 A2999 RMK A01 T02860187  RH  055%=      5-min Rain = 0
KMC1 260110Z 14005KT 29/19 A2999 RMK A01 T02850185  RH  055%=      5-min Rain = 0
KMC1 260111Z 14005KT 28/19 A2999 RMK A01 T02840186  RH  055%=      5-min Rain = 0
KMC1 260112Z 14006KT 28/19 A2999 RMK A01 T02840185  RH  055%=      5-min Rain = 0
KMC1 260113Z 14005KT 28/19 A2999 RMK A01 T02830185  RH  055%=      5-min Rain = 0
KMC1 260114Z 14005KT 28/19 A2999 RMK A01 T02820185  RH  055%=      5-min Rain = 0
KMC1 260115Z 14004KT 28/19 A2999 RMK A01 T02820185  RH  056%=      5-min Rain = 0
KMC1 260116Z 14005KT 28/19 A2999 RMK A01 T02810187  RH  057%=      5-min Rain = 0
KMC1 260117Z 14005KT 28/19 A2999 RMK A01 T02800186  RH  057%=      5-min Rain = 0
KMC1 260118Z 13005KT 28/19 A2999 RMK A01 T02790186  RH  057%=      5-min Rain = 0
KMC1 260119Z 13004KT 28/19 A2999 RMK A01 T02780187  RH  057%=      5-min Rain = 0
KMC1 260120Z 13004KT 28/19 A2999 RMK A01 T02770187  RH  058%=      5-min Rain = 0
KMC1 260121Z 14003KT 28/19 A2999 RMK A01 T02760187  RH  058%=      5-min Rain = 0
KMC1 260122Z 13004KT 28/19 A2999 RMK A01 T02750187  RH  059%=      5-min Rain = 0
KMC1 260123Z 14004KT 27/19 A2999 RMK A01 T02740188  RH  059%=      5-min Rain = 0
KMC1 260124Z 13004KT 27/19 A30 RMK A01 T02740188  RH  059%=      5-min Rain = 0
KMC1 260125Z 14004KT 27/19 A30 RMK A01 T02740188  RH  060%=      5-min Rain = 0
KMC1 260126Z 14004KT 27/19 A30 RMK A01 T02730188  RH  060%=      5-min Rain = 0
KMC1 260127Z 14004KT 27/19 A30 RMK A01 T02730188  RH  060%=      5-min Rain = 0
KMC1 260128Z 14004KT 27/19 A30 RMK A01 T02720189  RH  060%=      5-min Rain = 0
KMC1 260129Z 14004KT 27/19 A30 RMK A01 T02720189  RH  060%=      5-min Rain = 0
KMC1 260130Z 14004KT 27/19 A30 RMK A01 T02720190  RH  061%=      5-min Rain = 0
KMC1 260131Z 14004KT 27/19 A30 RMK A01 T02710190  RH  061%=      5-min Rain = 0
KMC1 260132Z 14004KT 27/19 A30 RMK A01 T02710190  RH  062%=      5-min Rain = 0
KMC1 260133Z 14004KT 27/19 A30 RMK A01 T02700189  RH  061%=      5-min Rain = 0
KMC1 260134Z 14004KT 27/19 A30 RMK A01 T02690190  RH  062%=      5-min Rain = 0
KMC1 260135Z 14004KT 27/19 A30 RMK A01 T02690190  RH  062%=      5-min Rain = 0
KMC1 260136Z 14004KT 27/19 A30 RMK A01 T02690189  RH  062%=      5-min Rain = 0
KMC1 260137Z 14004KT 27/19 A30 RMK A01 T02680190  RH  062%=      5-min Rain = 0
KMC1 260138Z 14005KT 27/19 A30 RMK A01 T02680190  RH  062%=      5-min Rain = 0
KMC1 260139Z 13004KT 27/19 A30 RMK A01 T02670190  RH  063%=      5-min Rain = 0
KMC1 260140Z 13004KT 27/19 A30 RMK A01 T02670190  RH  063%=      5-min Rain = 0
KMC1 260141Z 13004KT 27/19 A30 RMK A01 T02660189  RH  063%=      5-min Rain = 0
KMC1 260142Z 13004KT 27/19 A30 RMK A01 T02660191  RH  063%=      5-min Rain = 0
KMC1 260143Z 14005KT 27/19 A30 RMK A01 T02650191  RH  064%=      5-min Rain = 0
KMC1 260144Z 14004KT 27/19 A30 RMK A01 T02650190  RH  063%=      5-min Rain = 0
KMC1 260145Z 14004KT 26/19 A30 RMK A01 T02640190  RH  064%=      5-min Rain = 0
KMC1 260146Z 14004KT 26/19 A30 RMK A01 T02640189  RH  063%=      5-min Rain = 0
KMC1 260147Z 14005KT 26/19 A30 RMK A01 T02640190  RH  064%=      5-min Rain = 0
KMC1 260148Z 14004KT 26/19 A30 RMK A01 T02640190  RH  064%=      5-min Rain = 0
KMC1 260149Z 14004KT 26/19 A30 RMK A01 T02630190  RH  064%=      5-min Rain = 0
KMC1 260150Z 14004KT 26/19 A30 RMK A01 T02630191  RH  064%=      5-min Rain = 0
KMC1 260151Z 14004KT 26/19 A3001 RMK A01 T02620191  RH  065%=      5-min Rain = 0
KMC1 260152Z 14004KT 26/19 A3001 RMK A01 T02610191  RH  065%=      5-min Rain = 0
KMC1 260153Z 14004KT 26/19 A3001 RMK A01 T02610191  RH  065%=      5-min Rain = 0
KMC1 260154Z 15004KT 26/19 A3001 RMK A01 T02600190  RH  065%=      5-min Rain = 0
KMC1 260155Z 14004KT 26/19 A3001 RMK A01 T02600191  RH  066%=      5-min Rain = 0
KMC1 260156Z 14005KT 26/19 A3001 RMK A01 T02590191  RH  066%=      5-min Rain = 0
KMC1 260157Z 14004KT 26/19 A3001 RMK A01 T02590190  RH  066%=      5-min Rain = 0
KMC1 260158Z 14004KT 26/19 A3001 RMK A01 T02590190  RH  066%=      5-min Rain = 0
KMC1 260159Z 14004KT 26/19 A3001 RMK A01 T02590190  RH  066%=      5-min Rain = 0
KMC1 260200Z 14005KT 26/19 A3001 RMK A01 T02590190  RH  066%=      5-min Rain = 0
KMC1 260201Z 14004KT 26/19 A3001 RMK A01 T02580190  RH  066%=      5-min Rain = 0
KMC1 260202Z 14004KT 26/19 A3001 RMK A01 T02580191  RH  066%=      5-min Rain = 0
KMC1 260203Z 14004KT 26/19 A3001 RMK A01 T02570190  RH  067%=      5-min Rain = 0
KMC1 260204Z 13004KT 26/19 A3001 RMK A01 T02570190  RH  067%=      5-min Rain = 0
KMC1 260205Z 13005KT 26/19 A3001 RMK A01 T02570190  RH  067%=      5-min Rain = 0
KMC1 260206Z 13005KT 26/19 A3001 RMK A01 T02570190  RH  067%=      5-min Rain = 0
KMC1 260207Z 13004KT 26/19 A3001 RMK A01 T02560190  RH  067%=      5-min Rain = 0
KMC1 260208Z 13004KT 26/19 A3001 RMK A01 T02560190  RH  067%=      5-min Rain = 0
KMC1 260209Z 14004KT 26/19 A3001 RMK A01 T02550191  RH  067%=      5-min Rain = 0
KMC1 260210Z 14004KT 26/19 A3001 RMK A01 T02550191  RH  068%=      5-min Rain = 0
KMC1 260211Z 13005KT 25/19 A30 RMK A01 T02540190  RH  068%=      5-min Rain = 0
KMC1 260212Z 14005KT 25/19 A30 RMK A01 T02540190  RH  067%=      5-min Rain = 0
KMC1 260213Z 14005KT 25/19 A3001 RMK A01 T02540189  RH  067%=      5-min Rain = 0
KMC1 260214Z 14005KT 25/19 A3001 RMK A01 T02540189  RH  067%=      5-min Rain = 0
KMC1 260215Z 14005KT 25/19 A3001 RMK A01 T02540190  RH  067%=      5-min Rain = 0
KMC1 260216Z 14005KT 25/19 A3001 RMK A01 T02540189  RH  067%=      5-min Rain = 0
KMC1 260217Z 13005KT 25/19 A3001 RMK A01 T02540188  RH  067%=      5-min Rain = 0
KMC1 260218Z 13006KT 26/19 A3001 RMK A01 T02550189  RH  067%=      5-min Rain = 0
KMC1 260219Z 13006KT 26/19 A3001 RMK A01 T02550188  RH  067%=      5-min Rain = 0
KMC1 260220Z 13005KT 26/19 A3001 RMK A01 T02550188  RH  066%=      5-min Rain = 0
KMC1 260221Z 13006KT 26/19 A3001 RMK A01 T02550188  RH  066%=      5-min Rain = 0
KMC1 260222Z 13005KT 26/19 A3001 RMK A01 T02550188  RH  066%=      5-min Rain = 0
KMC1 260223Z 13006KT 26/19 A3001 RMK A01 T02550188  RH  066%=      5-min Rain = 0
KMC1 260224Z 13006KT 26/19 A3001 RMK A01 T02550188  RH  066%=      5-min Rain = 0
KMC1 260225Z 13006KT 26/19 A3001 RMK A01 T02550188  RH  066%=      5-min Rain = 0
KMC1 260226Z 13005KT 26/19 A3001 RMK A01 T02550188  RH  066%=      5-min Rain = 0
KMC1 260227Z 13006KT 25/19 A3001 RMK A01 T02540187  RH  066%=      5-min Rain = 0
KMC1 260228Z 13006KT 25/19 A3001 RMK A01 T02540187  RH  066%=      5-min Rain = 0
KMC1 260229Z 12006KT 25/19 A3001 RMK A01 T02540187  RH  066%=      5-min Rain = 0
KMC1 260230Z 12006KT 25/19 A3001 RMK A01 T02540187  RH  067%=      5-min Rain = 0
KMC1 260231Z 12006KT 25/19 A3001 RMK A01 T02540187  RH  066%=      5-min Rain = 0
KMC1 260232Z 12007KT 25/19 A3001 RMK A01 T02540186  RH  066%=      5-min Rain = 0
KMC1 260233Z 12005KT 25/19 A3001 RMK A01 T02540186  RH  066%=      5-min Rain = 0
KMC1 260234Z 13006KT 25/19 A3001 RMK A01 T02540186  RH  066%=      5-min Rain = 0
KMC1 260235Z 13006KT 25/19 A3001 RMK A01 T02540186  RH  066%=      5-min Rain = 0
KMC1 260236Z 13005KT 25/19 A3002 RMK A01 T02540186  RH  066%=      5-min Rain = 0
KMC1 260237Z 13005KT 25/19 A3002 RMK A01 T02530185  RH  066%=      5-min Rain = 0
KMC1 260238Z 12005KT 25/19 A3002 RMK A01 T02540185  RH  066%=      5-min Rain = 0
KMC1 260239Z 12006KT 25/19 A3002 RMK A01 T02530185  RH  066%=      5-min Rain = 0
KMC1 260240Z 12006KT 25/19 A3002 RMK A01 T02530185  RH  066%=      5-min Rain = 0
KMC1 260241Z 13005KT 25/19 A3002 RMK A01 T02530185  RH  066%=      5-min Rain = 0
KMC1 260242Z 12006KT 25/19 A3002 RMK A01 T02530185  RH  066%=      5-min Rain = 0
KMC1 260243Z 12006KT 25/19 A3002 RMK A01 T02530185  RH  066%=      5-min Rain = 0
KMC1 260244Z 12006KT 25/18 A3002 RMK A01 T02520184  RH  066%=      5-min Rain = 0
KMC1 260245Z 11005KT 25/19 A3002 RMK A01 T02530185  RH  066%=      5-min Rain = 0
KMC1 260246Z 12006KT 25/19 A3002 RMK A01 T02520185  RH  066%=      5-min Rain = 0
KMC1 260247Z 12005KT 25/19 A3002 RMK A01 T02520185  RH  066%=      5-min Rain = 0
KMC1 260248Z 12005KT 25/19 A3002 RMK A01 T02520185  RH  067%=      5-min Rain = 0
KMC1 260249Z 12005KT 25/19 A3002 RMK A01 T02510186  RH  067%=      5-min Rain = 0
KMC1 260250Z 12005KT 25/19 A3002 RMK A01 T02510185  RH  067%=      5-min Rain = 0
KMC1 260251Z 12005KT 25/19 A3002 RMK A01 T02500185  RH  067%=      5-min Rain = 0
KMC1 260252Z 12006KT 25/19 A3002 RMK A01 T02500186  RH  067%=      5-min Rain = 0
KMC1 260253Z 12005KT 25/19 A3002 RMK A01 T02500185  RH  067%=      5-min Rain = 0
KMC1 260254Z 12006KT 25/19 A3002 RMK A01 T02490185  RH  067%=      5-min Rain = 0
KMC1 260255Z 12005KT 25/19 A3003 RMK A01 T02490185  RH  068%=      5-min Rain = 0
KMC1 260256Z 12005KT 25/19 A3003 RMK A01 T02490185  RH  068%=      5-min Rain = 0
KMC1 260257Z 12004KT 25/19 A3003 RMK A01 T02490186  RH  068%=      5-min Rain = 0
KMC1 260258Z 12005KT 25/19 A3003 RMK A01 T02480185  RH  068%=      5-min Rain = 0
KMC1 260259Z 12005KT 25/19 A3003 RMK A01 T02480185  RH  068%=      5-min Rain = 0
KMC1 260300Z 12006KT 25/19 A3003 RMK A01 T02480185  RH  068%=      5-min Rain = 0
KMC1 260301Z 12006KT 25/19 A3003 RMK A01 T02480185  RH  068%=      5-min Rain = 0
KMC1 260302Z 12005KT 25/19 A3003 RMK A01 T02480185  RH  068%=      5-min Rain = 0
KMC1 260303Z 12006KT 25/19 A3003 RMK A01 T02470185  RH  068%=      5-min Rain = 0
KMC1 260304Z 12006KT 25/19 A3003 RMK A01 T02470185  RH  068%=      5-min Rain = 0
KMC1 260305Z 12006KT 25/19 A3003 RMK A01 T02470185  RH  068%=      5-min Rain = 0
KMC1 260306Z 12006KT 25/19 A3003 RMK A01 T02470185  RH  068%=      5-min Rain = 0
KMC1 260307Z 12006KT 25/19 A3003 RMK A01 T02460185  RH  069%=      5-min Rain = 0
KMC1 260308Z 12006KT 25/19 A3003 RMK A01 T02460185  RH  069%=      5-min Rain = 0
KMC1 260309Z 12006KT 25/19 A3003 RMK A01 T02460185  RH  069%=      5-min Rain = 0
KMC1 260310Z 13005KT 25/18 A3003 RMK A01 T02460184  RH  069%=      5-min Rain = 0
KMC1 260311Z 12006KT 25/19 A3003 RMK A01 T02460185  RH  069%=      5-min Rain = 0
KMC1 260312Z 12006KT 25/19 A3003 RMK A01 T02450185  RH  069%=      5-min Rain = 0
KMC1 260313Z 13006KT 25/19 A3003 RMK A01 T02450185  RH  069%=      5-min Rain = 0
KMC1 260314Z 12006KT 25/18 A3003 RMK A01 T02450184  RH  069%=      5-min Rain = 0
KMC1 260315Z 13006KT 25/19 A3003 RMK A01 T02450185  RH  069%=      5-min Rain = 0
KMC1 260316Z 13006KT 25/19 A3003 RMK A01 T02450185  RH  069%=      5-min Rain = 0
KMC1 260317Z 12007KT 25/18 A3003 RMK A01 T02450184  RH  069%=      5-min Rain = 0
KMC1 260318Z 12007KT 25/18 A3004 RMK A01 T02450184  RH  069%=      5-min Rain = 0
KMC1 260319Z 12007KT 25/18 A3004 RMK A01 T02450184  RH  069%=      5-min Rain = 0
KMC1 260320Z 13007KT 25/19 A3004 RMK A01 T02460185  RH  069%=      5-min Rain = 0
KMC1 260321Z 12007KT 25/19 A3004 RMK A01 T02460185  RH  069%=      5-min Rain = 0
KMC1 260322Z 13007KT 25/19 A3004 RMK A01 T02460185  RH  069%=      5-min Rain = 0
KMC1 260323Z 13008KT 25/19 A3004 RMK A01 T02460185  RH  069%=      5-min Rain = 0
KMC1 260324Z 13007KT 25/19 A3004 RMK A01 T02460185  RH  069%=      5-min Rain = 0
KMC1 260325Z 12007KT 25/19 A3004 RMK A01 T02470185  RH  069%=      5-min Rain = 0
KMC1 260326Z 13009KT 25/19 A3004 RMK A01 T02470186  RH  069%=      5-min Rain = 0
KMC1 260327Z 13008KT 25/19 A3004 RMK A01 T02470186  RH  069%=      5-min Rain = 0
KMC1 260328Z 13009KT 25/19 A3004 RMK A01 T02480186  RH  068%=      5-min Rain = 0
KMC1 260329Z 13008KT 25/19 A3004 RMK A01 T02480186  RH  068%=      5-min Rain = 0
KMC1 260330Z 12008KT 25/19 A3004 RMK A01 T02490186  RH  068%=      5-min Rain = 0
KMC1 260331Z 13008KT 25/19 A3005 RMK A01 T02490187  RH  068%=      5-min Rain = 0
KMC1 260332Z 12008KT 25/19 A3005 RMK A01 T02490187  RH  069%=      5-min Rain = 0
KMC1 260333Z 13007KT 25/19 A3005 RMK A01 T02490188  RH  069%=      5-min Rain = 0
KMC1 260334Z 12009KT 25/19 A3005 RMK A01 T02490189  RH  069%=      5-min Rain = 0
KMC1 260335Z 12009KT 25/19 A3005 RMK A01 T02480189  RH  069%=      5-min Rain = 0
KMC1 260336Z 12008KT 25/19 A3005 RMK A01 T02480189  RH  070%=      5-min Rain = 0
KMC1 260337Z 12008KT 25/19 A3005 RMK A01 T02480190  RH  070%=      5-min Rain = 0
KMC1 260338Z 12007KT 25/19 A3005 RMK A01 T02480190  RH  070%=      5-min Rain = 0
KMC1 260339Z 13009KT 25/19 A3005 RMK A01 T02480191  RH  070%=      5-min Rain = 0
KMC1 260340Z 12008KT 25/19 A3005 RMK A01 T02480190  RH  070%=      5-min Rain = 0
KMC1 260341Z 11006KT 25/19 A3005 RMK A01 T02480190  RH  070%=      5-min Rain = 0
KMC1 260342Z 10006KT 25/19 A3005 RMK A01 T02480191  RH  071%=      5-min Rain = 0
KMC1 260343Z 11008KT 25/19 A3006 RMK A01 T02470191  RH  071%=      5-min Rain = 0
KMC1 260344Z 11008KT 25/19 A3006 RMK A01 T02470192  RH  071%=      5-min Rain = 0
KMC1 260345Z 11009G14KT 25/19 A3006 RMK A01 T02470193  RH  072%=      5-min Rain = 0
KMC1 260346Z 13011KT 25/19 A3006 RMK A01 T02470194  RH  072%=      5-min Rain = 0
KMC1 260347Z 13009KT 25/20 A3005 RMK A01 T02470195  RH  073%=      5-min Rain = 0
KMC1 260348Z 13007KT 25/20 A3006 RMK A01 T02470196  RH  073%=      5-min Rain = 0
KMC1 260349Z 14011KT 25/20 A3006 RMK A01 T02460197  RH  074%=      5-min Rain = 0
KMC1 260350Z 13010KT 25/20 A3006 RMK A01 T02470199  RH  075%=      5-min Rain = 0
KMC1 260351Z 13010G15KT 25/20 A3006 RMK A01 T02460199  RH  075%=      5-min Rain = 0
KMC1 260352Z 14010KT 25/20 A3006 RMK A01 T02470200  RH  075%=      5-min Rain = 0
KMC1 260353Z 13013KT 25/20 A3006 RMK A01 T02470201  RH  076%=      5-min Rain = 0
KMC1 260354Z 13009KT 25/20 A3006 RMK A01 T02460201  RH  076%=      5-min Rain = 0
KMC1 260355Z 13007KT 25/20 A3006 RMK A01 T02470201  RH  076%=      5-min Rain = 0
KMC1 260356Z 13008KT 25/20 A3006 RMK A01 T02470202  RH  076%=      5-min Rain = 0
KMC1 260357Z 13009KT 25/20 A3006 RMK A01 T02460202  RH  077%=      5-min Rain = 0
KMC1 260358Z 13009KT 25/20 A3006 RMK A01 T02460202  RH  077%=      5-min Rain = 0
KMC1 260359Z 14009KT 25/20 A3006 RMK A01 T02450202  RH  077%=      5-min Rain = 0
KMC1 260400Z 14007KT 25/20 A3006 RMK A01 T02450203  RH  077%=      5-min Rain = 0
KMC1 260401Z 14008KT 25/20 A3006 RMK A01 T02450203  RH  077%=      5-min Rain = 0
KMC1 260402Z 13009KT 25/20 A3006 RMK A01 T02450203  RH  077%=      5-min Rain = 0
KMC1 260403Z 13008KT 25/20 A3007 RMK A01 T02450203  RH  077%=      5-min Rain = 0
KMC1 260404Z 13008KT 24/20 A3007 RMK A01 T02440203  RH  078%=      5-min Rain = 0
KMC1 260405Z 13009KT 25/20 A3007 RMK A01 T02450203  RH  078%=      5-min Rain = 0
KMC1 260406Z 14007KT 24/20 A3007 RMK A01 T02440202  RH  077%=      5-min Rain = 0
KMC1 260407Z 13006KT 24/20 A3007 RMK A01 T02440203  RH  078%=      5-min Rain = 0
KMC1 260408Z 14008KT 24/20 A3007 RMK A01 T02440202  RH  078%=      5-min Rain = 0
KMC1 260409Z 14009KT 24/20 A3007 RMK A01 T02430202  RH  078%=      5-min Rain = 0
KMC1 260410Z 14008KT 24/20 A3007 RMK A01 T02440202  RH  078%=      5-min Rain = 0
KMC1 260411Z 15006KT 24/20 A3008 RMK A01 T02430202  RH  078%=      5-min Rain = 0
KMC1 260412Z 13008KT 24/20 A3008 RMK A01 T02430202  RH  078%=      5-min Rain = 0
KMC1 260413Z 14007KT 24/20 A3008 RMK A01 T02430202  RH  078%=      5-min Rain = 0
KMC1 260414Z 14008KT 24/20 A3008 RMK A01 T02420202  RH  078%=      5-min Rain = 0
KMC1 260415Z 14008KT 24/20 A3008 RMK A01 T02420202  RH  078%=      5-min Rain = 0
KMC1 260416Z 14009KT 24/20 A3008 RMK A01 T02420202  RH  078%=      5-min Rain = 0
KMC1 260417Z 13008KT 24/20 A3008 RMK A01 T02420202  RH  078%=      5-min Rain = 0
KMC1 260418Z 14007KT 24/20 A3008 RMK A01 T02420202  RH  079%=      5-min Rain = 0
KMC1 260419Z 13008KT 24/20 A3008 RMK A01 T02410202  RH  079%=      5-min Rain = 0
KMC1 260420Z 14006KT 24/20 A3008 RMK A01 T02410202  RH  079%=      5-min Rain = 0
KMC1 260421Z 13005KT 24/20 A3008 RMK A01 T02410202  RH  079%=      5-min Rain = 0
KMC1 260422Z 13007KT 24/20 A3008 RMK A01 T02410202  RH  079%=      5-min Rain = 0
KMC1 260423Z 13007KT 24/20 A3008 RMK A01 T02410202  RH  079%=      5-min Rain = 0
KMC1 260424Z 13006KT 24/20 A3008 RMK A01 T02410202  RH  079%=      5-min Rain = 0
KMC1 260425Z 12009KT 24/20 A3008 RMK A01 T02400202  RH  079%=      5-min Rain = 0
KMC1 260426Z 13008KT 24/20 A3008 RMK A01 T02400202  RH  079%=      5-min Rain = 0
KMC1 260427Z 13008KT 24/20 A3008 RMK A01 T02400202  RH  079%=      5-min Rain = 0
KMC1 260428Z 12007KT 24/20 A3009 RMK A01 T02400202  RH  079%=      5-min Rain = 0
KMC1 260429Z 13008KT 24/20 A3009 RMK A01 T02400202  RH  079%=      5-min Rain = 0
KMC1 260430Z 13008KT 24/20 A3009 RMK A01 T02400202  RH  079%=      5-min Rain = 0
KMC1 260431Z 12010KT 24/20 A3009 RMK A01 T02400202  RH  080%=      5-min Rain = 0
KMC1 260432Z 13006KT 24/20 A3009 RMK A01 T02400202  RH  079%=      5-min Rain = 0
KMC1 260433Z 12008KT 24/20 A3009 RMK A01 T02390202  RH  080%=      5-min Rain = 0
KMC1 260434Z 13008KT 24/20 A3009 RMK A01 T02390202  RH  080%=      5-min Rain = 0
KMC1 260435Z 13008KT 24/20 A3009 RMK A01 T02390202  RH  080%=      5-min Rain = 0
KMC1 260436Z 14006KT 24/20 A3009 RMK A01 T02390202  RH  080%=      5-min Rain = 0
KMC1 260437Z 14005KT 24/20 A3009 RMK A01 T02390202  RH  080%=      5-min Rain = 0
KMC1 260438Z 13007KT 24/20 A3009 RMK A01 T02380202  RH  080%=      5-min Rain = 0
KMC1 260439Z 14006KT 24/20 A3009 RMK A01 T02370202  RH  081%=      5-min Rain = 0
KMC1 260440Z 13007KT 24/20 A3009 RMK A01 T02370202  RH  081%=      5-min Rain = 0
KMC1 260441Z 13007KT 24/20 A301 RMK A01 T02370202  RH  081%=      5-min Rain = 0
KMC1 260442Z 14004G9KT 24/20 A301 RMK A01 T02370202  RH  081%=      5-min Rain = 0
KMC1 260443Z 14007KT 24/20 A301 RMK A01 T02370202  RH  081%=      5-min Rain = 0
KMC1 260444Z 13006KT 24/20 A301 RMK A01 T02360202  RH  081%=      5-min Rain = 0
KMC1 260445Z 13005KT 24/20 A301 RMK A01 T02360202  RH  081%=      5-min Rain = 0
KMC1 260446Z 14005KT 24/20 A301 RMK A01 T02360202  RH  081%=      5-min Rain = 0
KMC1 260447Z 13007KT 24/20 A301 RMK A01 T02360202  RH  081%=      5-min Rain = 0
KMC1 260448Z 13009KT 24/20 A301 RMK A01 T02360201  RH  081%=      5-min Rain = 0
KMC1 260449Z 13005KT 24/20 A301 RMK A01 T02360201  RH  081%=      5-min Rain = 0
KMC1 260450Z 13006KT 24/20 A301 RMK A01 T02360202  RH  081%=      5-min Rain = 0
KMC1 260451Z 13004KT 24/20 A301 RMK A01 T02360202  RH  081%=      5-min Rain = 0
KMC1 260452Z 13004KT 24/20 A301 RMK A01 T02350202  RH  082%=      5-min Rain = 0
KMC1 260453Z 13004KT 24/20 A301 RMK A01 T02350202  RH  082%=      5-min Rain = 0
KMC1 260454Z 13004KT 23/20 A301 RMK A01 T02340202  RH  082%=      5-min Rain = 0
KMC1 260455Z 13004KT 23/20 A301 RMK A01 T02340202  RH  082%=      5-min Rain = 0
KMC1 260456Z 13004KT 23/20 A301 RMK A01 T02340202  RH  082%=      5-min Rain = 0
KMC1 260457Z 12004KT 23/20 A301 RMK A01 T02330202  RH  083%=      5-min Rain = 0
KMC1 260458Z 13004KT 23/20 A301 RMK A01 T02330202  RH  083%=      5-min Rain = 0
KMC1 260459Z 12004KT 23/20 A301 RMK A01 T02330202  RH  083%=      5-min Rain = 0

Page generated in 0.1417 seconds.